Home > Products > Valid Products > TAF

000
FTUS41 KOKX 101430 AAA
TAFJFK
TAF AMD
KJFK 101430Z 1015/1118 28012KT P6SM FEW015 OVC035
      TEMPO 1015/1016 3SM -SN
     FM101700 27017G24KT P6SM BKN040=



000
FTUS41 KOKX 101430 AAA
TAFEWR
TAF AMD
KEWR 101430Z 1015/1118 28011KT 3SM -SN BR OVC020
     FM101530 27016G23KT P6SM BKN040
     FM110400 28011G18KT P6SM BKN040
     FM111400 29014G22KT P6SM BKN040=



000
FTUS41 KOKX 101430 AAA
TAFTEB
TAF AMD
KTEB 101430Z 1015/1112 29009KT 5SM BR OVC050
     FM101600 27012G21KT P6SM BKN040
     FM110100 29010G18KT P6SM BKN040=



000
FTUS41 KOKX 101430 AAA
TAFBDR
TAF AMD
KBDR 101430Z 1015/1112 VRB03KT 6SM BR SCT008 BKN015
      TEMPO 1015/1016 2SM -SN BR BKN008
     FM101600 28010KT P6SM SCT025 BKN035
     FM101800 28013G20KT P6SM BKN040
     FM110000 27007KT P6SM BKN040=



000
FTUS41 KOKX 101430 AAA
TAFLGA
TAF AMD
KLGA 101430Z 1015/1112 29011KT P6SM -SHSN BKN035
      TEMPO 1015/1016 3SM -SN BKN015
     FM101700 27014G21KT P6SM BKN040
     FM110600 30014G21KT P6SM BKN040=



000
FTUS41 KOKX 101430 AAA
TAFISP
TAF AMD
KISP 101430Z 1015/1112 VRB02KT 6SM -SN BR SCT015 OVC030
      TEMPO 1015/1016 2SM -SN BR BKN015
     FM101600 27010KT P6SM SCT015 BKN035
     FM101800 27013G21KT P6SM BKN040
     FM110200 27010KT P6SM BKN040=



000
FTUS41 KOKX 101430 AAA
TAFGON
TAF AMD
KGON 101430Z 1015/1112 VRB02KT 6SM -SN FEW020 OVC030
      TEMPO 1015/1017 1SM -SN BKN015 OVC025
     FM101700 28010G15KT P6SM BKN040
     FM102300 30007KT P6SM BKN050=



000
FTUS41 KOKX 101430 AAA
TAFSWF
TAF AMD
KSWF 101430Z 1015/1118 27008KT P6SM SCT025 BKN040
     FM101700 27011G19KT P6SM BKN040
     FM102300 26007KT P6SM BKN040
     FM111400 28012G20KT P6SM BKN040
      AMD NOT SKED=



000
FTUS41 KOKX 101120
TAFBDR
TAF
KBDR 101120Z 1012/1112 VRB03KT 6SM BR SCT008 BKN015
      TEMPO 1012/1015 2SM -SN BR BKN008
     FM101500 28010KT P6SM SCT025 BKN035
     FM101800 28013G20KT P6SM BKN040
     FM110000 27007KT P6SM BKN040=



000
FTUS41 KOKX 101120
TAFJFK
TAF
KJFK 101120Z 1012/1118 24007KT 6SM -SNDZ BKN020 OVC050
      TEMPO 1012/1014 BKN008
     FM101500 27012KT P6SM -SHSN BKN030
     FM101700 27017G24KT P6SM BKN040=



000
FTUS41 KOKX 101120
TAFGON
TAF
KGON 101120Z 1012/1112 VRB02KT 6SM -SN FEW020 OVC030
      TEMPO 1012/1015 4SM -SN BKN015 OVC025
     FM101600 28010G15KT P6SM BKN040
     FM102300 30007KT P6SM BKN050=



000
FTUS41 KOKX 101120
TAFSWF
TAF
KSWF 101120Z 1012/1118 VRB02KT 6SM -SN BR FEW010 BKN030 OVC040
     FM101400 27008KT P6SM SCT025 BKN040
     FM101700 27011G19KT P6SM BKN040
     FM102300 26007KT P6SM BKN040
     FM111400 28012G20KT P6SM BKN040
      AMD NOT SKED=



000
FTUS41 KOKX 101120
TAFEWR
TAF
KEWR 101120Z 1012/1118 21006KT 6SM -SNDZ BKN020 OVC035
      TEMPO 1012/1013 BKN008
     FM101300 28011KT P6SM -SHSN BKN030
     FM101500 27016G23KT P6SM BKN040
     FM110400 28011G18KT P6SM BKN040
     FM111400 29014G22KT P6SM BKN040=



000
FTUS41 KOKX 101120
TAFTEB
TAF
KTEB 101120Z 1012/1112 VRB02KT 6SM -SN FEW015 OVC025
     FM101300 29009KT P6SM -SHSN BKN030
     FM101500 27012G21KT P6SM BKN040
     FM110100 29010G18KT P6SM BKN040=



000
FTUS41 KOKX 101120
TAFLGA
TAF
KLGA 101120Z 1012/1112 24006KT 6SM -SNDZ BKN020 OVC025
      TEMPO 1012/1014 BKN008
     FM101500 29011KT P6SM -SHSN BKN030
     FM101700 27014G21KT P6SM BKN040
     FM110600 30014G21KT P6SM BKN040=



000
FTUS41 KOKX 101120
TAFISP
TAF
KISP 101120Z 1012/1112 VRB02KT 6SM -SN BR SCT015 OVC030
      TEMPO 1012/1015 2SM -SN BR BKN015
     FM101500 27010KT P6SM SCT015 BKN035
     FM101800 27013G21KT P6SM BKN040
     FM110200 27010KT P6SM BKN040=



000
FTUS41 KOKX 100832 AAA
TAFJFK
TAF AMD
KJFK 100832Z 1009/1112 VRB03KT 6SM -SN BKN020 OVC050
      TEMPO 1009/1011 2SM -SN BKN008 OVC015
     FM101400 27012KT P6SM FEW020 BKN035
     FM101700 27017G24KT P6SM BKN040=



000
FTUS41 KOKX 100832 AAA
TAFEWR
TAF AMD
KEWR 100832Z 1009/1112 VRB03KT 6SM -SN BKN020 OVC035
      TEMPO 1009/1011 3SM -SN BKN006 OVC015
     FM101300 28011KT P6SM FEW025 BKN035
     FM101600 27016G23KT P6SM BKN040
     FM110400 28011G18KT P6SM BKN040=



000
FTUS41 KOKX 100832 AAA
TAFLGA
TAF AMD
KLGA 100832Z 1009/1106 VRB04KT 6SM -SN BKN020 OVC025
      TEMPO 1009/1011 2SM -SN BKN009 OVC015
     FM101400 29011KT P6SM FEW025 BKN035
     FM101700 27014G21KT P6SM BKN050=



000
FTUS41 KOKX 100832 AAA
TAFTEB
TAF AMD
KTEB 100832Z 1009/1106 VRB02KT 6SM -SN FEW015 OVC025
      TEMPO 1009/1011 3SM -SN BKN006 OVC015
     FM101300 29009KT P6SM SCT025 BKN035
     FM101600 27012G21KT P6SM BKN040
     FM110100 29009KT P6SM BKN040=



000
FTUS41 KOKX 100832 AAA
TAFISP
TAF AMD
KISP 100832Z 1009/1106 VRB02KT 6SM -SN FEW020 OVC050
      TEMPO 1009/1012 2SM -SN BKN008 OVC015
     FM101500 27010KT P6SM SCT015 BKN035
     FM101900 27013G21KT P6SM BKN040
     FM110000 27010KT P6SM BKN040=



000
FTUS41 KOKX 100832 AAA
TAFBDR
TAF AMD
KBDR 100832Z 1009/1106 VRB03KT 6SM -SN FEW025 OVC050
      TEMPO 1009/1012 2SM -SN BKN010 OVC025
     FM101500 28010KT P6SM SCT025 BKN035
     FM101900 28013KT P6SM BKN040
     FM110000 27007KT P6SM BKN040=



000
FTUS41 KOKX 100832 AAA
TAFJFK
TAF AMD
KJFK 100832Z 1009/1112 VRB03KT 6SM -SN BKN020 OVC050
      TEMPO 1009/1011 2SM -SN BKN008 OVC015
     FM101400 27012KT P6SM FEW020 BKN035
     FM101700 27017G24KT P6SM BKN040=



000
FTUS41 KOKX 100832 AAA
TAFGON
TAF AMD
KGON 100832Z 1009/1106 VRB02KT 6SM -SN FEW020 OVC030
      TEMPO 1009/1013 4SM -SN BKN015 OVC025
     FM101600 28008KT P6SM BKN050=



000
FTUS41 KOKX 100832 AAA
TAFSWF
TAF AMD
KSWF 100832Z 1009/1112 VRB02KT 6SM -SN BR FEW010 BKN030 OVC040
      TEMPO 1009/1011 2SM -SN BKN010 OVC020
     FM101300 27008KT P6SM SCT025 BKN040
     FM101700 27011G19KT P6SM BKN040
     FM102300 26007KT P6SM BKN040
      AMD NOT SKED=



000
FTUS41 KOKX 100832 AAA
TAFEWR
TAF AMD
KEWR 100832Z 1009/1112 VRB03KT 6SM -SN BKN020 OVC035
      TEMPO 1009/1011 3SM -SN BKN006 OVC015
     FM101300 28011KT P6SM FEW025 BKN035
     FM101600 27016G23KT P6SM BKN040
     FM110400 28011G18KT P6SM BKN040=



000
FTUS41 KOKX 100832 AAA
TAFTEB
TAF AMD
KTEB 100832Z 1009/1106 VRB02KT 6SM -SN FEW015 OVC025
      TEMPO 1009/1011 3SM -SN BKN006 OVC015
     FM101300 29009KT P6SM SCT025 BKN035
     FM101600 27012G21KT P6SM BKN040
     FM110100 29009KT P6SM BKN040=



000
FTUS41 KOKX 100832 AAA
TAFLGA
TAF AMD
KLGA 100832Z 1009/1106 VRB04KT 6SM -SN BKN020 OVC025
      TEMPO 1009/1011 2SM -SN BKN009 OVC015
     FM101400 29011KT P6SM FEW025 BKN035
     FM101700 27014G21KT P6SM BKN050=



000
FTUS41 KOKX 100526
TAFJFK
TAF
KJFK 100526Z 1006/1112 VRB03KT 6SM -SN BKN019 OVC050
      TEMPO 1006/1010 2SM -SN BKN008 OVC015
     FM101400 27012KT P6SM FEW020 BKN035
     FM101700 27017G24KT P6SM BKN040=



000
FTUS41 KOKX 100526
TAFLGA
TAF
KLGA 100526Z 1006/1106 VRB04KT 6SM -SN BKN019 OVC025
      TEMPO 1006/1010 2SM -SN BKN009 OVC015
     FM101400 29011KT P6SM FEW025 BKN035
     FM101700 27014G21KT P6SM BKN050=



000
FTUS41 KOKX 100526
TAFISP
TAF
KISP 100526Z 1006/1106 VRB02KT 6SM -SN FEW020 OVC050
      TEMPO 1007/1011 1 1/2SM -SN BKN007 OVC015
     FM101600 27010KT P6SM SCT015 BKN035
     FM101900 27013G21KT P6SM BKN040
     FM110000 27010KT P6SM BKN040=



000
FTUS41 KOKX 100526
TAFBDR
TAF
KBDR 100526Z 1006/1106 VRB03KT 6SM -SN FEW025 OVC050
      TEMPO 1008/1012 2SM -SN BKN010 OVC025
     FM101600 28010KT P6SM SCT025 BKN035
     FM101900 28013KT P6SM BKN040
     FM110000 27007KT P6SM BKN040=



000
FTUS41 KOKX 100526
TAFSWF
TAF
KSWF 100526Z 1006/1112 VRB02KT P6SM -SN FEW025 OVC050
     FM100800 VRB02KT 6SM -SN BR FEW010 BKN030 OVC040
      TEMPO 1008/1011 2SM -SN BKN010 OVC020
     FM101300 27008KT P6SM SCT025 BKN040
     FM101700 27011G19KT P6SM BKN040
     FM102300 26007KT P6SM BKN040
      AMD NOT SKED=



000
FTUS41 KOKX 100526
TAFGON
TAF
KGON 100526Z 1006/1106 VRB02KT P6SM SCT050 BKN100
     FM100900 VRB02KT 6SM -SN FEW020 OVC030
      TEMPO 1009/1013 4SM -SN BKN015 OVC025
     FM101700 28008KT P6SM BKN050=



000
FTUS41 KOKX 100526
TAFTEB
TAF
KTEB 100526Z 1006/1106 VRB02KT 6SM -SN FEW015 OVC025
      TEMPO 1006/1010 1 1/2SM -SN BKN006 OVC015
     FM101300 29009KT P6SM SCT025 BKN035
     FM101600 27012G21KT P6SM BKN040
     FM110100 29009KT P6SM BKN040=



000
FTUS41 KOKX 100526
TAFEWR
TAF
KEWR 100526Z 1006/1112 VRB03KT 6SM -SN BKN020 OVC035
      TEMPO 1006/1010 1 1/2SM -SN BKN006 OVC015
     FM101300 28011KT P6SM FEW025 BKN035
     FM101600 27016G23KT P6SM BKN040
     FM110400 28011G18KT P6SM BKN040=



000
FTUS41 KOKX 100526
TAFTEB
TAF
KTEB 100526Z 1006/1106 VRB02KT 6SM -SN FEW015 OVC025
      TEMPO 1006/1010 1 1/2SM -SN BKN006 OVC015
     FM101300 29009KT P6SM SCT025 BKN035
     FM101600 27012G21KT P6SM BKN040
     FM110100 29009KT P6SM BKN040=



000
FTUS41 KOKX 100526
TAFLGA
TAF
KLGA 100526Z 1006/1106 VRB04KT 6SM -SN BKN019 OVC025
      TEMPO 1006/1010 2SM -SN BKN009 OVC015
     FM101400 29011KT P6SM FEW025 BKN035
     FM101700 27014G21KT P6SM BKN050=



000
FTUS41 KOKX 100526
TAFJFK
TAF
KJFK 100526Z 1006/1112 VRB03KT 6SM -SN BKN019 OVC050
      TEMPO 1006/1010 2SM -SN BKN008 OVC015
     FM101400 27012KT P6SM FEW020 BKN035
     FM101700 27017G24KT P6SM BKN040=



000
FTUS41 KOKX 100526
TAFSWF
TAF
KSWF 100526Z 1006/1112 VRB02KT P6SM -SN FEW025 OVC050
     FM100800 VRB02KT 6SM -SN BR FEW010 BKN030 OVC040
      TEMPO 1008/1011 2SM -SN BKN010 OVC020
     FM101300 27008KT P6SM SCT025 BKN040
     FM101700 27011G19KT P6SM BKN040
     FM102300 26007KT P6SM BKN040
      AMD NOT SKED=



000
FTUS41 KOKX 100526
TAFEWR
TAF
KEWR 100526Z 1006/1112 VRB03KT 6SM -SN BKN020 OVC035
      TEMPO 1006/1010 1 1/2SM -SN BKN006 OVC015
     FM101300 28011KT P6SM FEW025 BKN035
     FM101600 27016G23KT P6SM BKN040
     FM110400 28011G18KT P6SM BKN040=



000
FTUS41 KOKX 100526
TAFGON
TAF
KGON 100526Z 1006/1106 VRB02KT P6SM SCT050 BKN100
     FM100900 VRB02KT 6SM -SN FEW020 OVC030
      TEMPO 1009/1013 4SM -SN BKN015 OVC025
     FM101700 28008KT P6SM BKN050=



000
FTUS41 KOKX 100526
TAFBDR
TAF
KBDR 100526Z 1006/1106 VRB03KT 6SM -SN FEW025 OVC050
      TEMPO 1008/1012 2SM -SN BKN010 OVC025
     FM101600 28010KT P6SM SCT025 BKN035
     FM101900 28013KT P6SM BKN040
     FM110000 27007KT P6SM BKN040=



000
FTUS41 KOKX 100526
TAFISP
TAF
KISP 100526Z 1006/1106 VRB02KT 6SM -SN FEW020 OVC050
      TEMPO 1007/1011 1 1/2SM -SN BKN007 OVC015
     FM101600 27010KT P6SM SCT015 BKN035
     FM101900 27013G21KT P6SM BKN040
     FM110000 27010KT P6SM BKN040=



000
FTUS41 KOKX 100317 AAB
TAFTEB
TAF AMD
KTEB 100317Z 1003/1024 VRB02KT P6SM -SN BKN025 OVC050
     FM100400 VRB03KT 5SM -SN BKN015 OVC020
      TEMPO 1008/1012 1 1/2SM -SN OVC006
     FM101300 29009KT P6SM SCT015 BKN035
     FM101600 27012G22KT P6SM BKN040=



000
FTUS41 KOKX 100317 AAB
TAFLGA
TAF AMD
KLGA 100317Z 1003/1024 13006KT P6SM -SN BKN019 OVC025
     FM100500 VRB04KT 5SM -SN BKN025 OVC040
      TEMPO 1009/1013 1 1/2SM -SN BKN010 OVC020
     FM101400 29012KT P6SM SCT020 BKN050
     FM101700 27015G25KT P6SM BKN050=



000
FTUS41 KOKX 100316 AAB
TAFJFK
TAF AMD
KJFK 100316Z 1003/1106 VRB04KT P6SM -SN FEW020 BKN035 OVC050
     FM100500 VRB04KT 5SM -SN BKN020 OVC040
      TEMPO 1009/1013 1 1/2SM -SN BKN007 OVC015
     FM101400 29012KT P6SM SCT020 BKN050
     FM101700 27017G24KT P6SM BKN040=



000
FTUS41 KOKX 100227 AAA
TAFTEB
TAF AMD
KTEB 100227Z 1002/1024 VRB02KT P6SM -SN FEW025 OVC050
     FM100400 VRB03KT 5SM -SN BKN010 OVC020
      TEMPO 1008/1012 1 1/2SM -SN OVC006
     FM101300 29009KT P6SM SCT015 BKN035
     FM101600 27012G22KT P6SM BKN040=



000
FTUS41 KOKX 100227 AAA
TAFLGA
TAF AMD
KLGA 100227Z 1002/1024 13006KT P6SM -SN FEW025 OVC040
     FM100500 VRB04KT 5SM -SN BKN025 OVC040
      TEMPO 1009/1013 1 1/2SM -SN BKN010 OVC020
     FM101400 29012KT P6SM SCT020 BKN050
     FM101700 27015G25KT P6SM BKN050=



000
FTUS41 KOKX 100227 AAA
TAFJFK
TAF AMD
KJFK 100227Z 1002/1106 11003KT P6SM -SN FEW020 BKN040 OVC060
     FM100500 VRB04KT 5SM -SN BKN020 OVC040
      TEMPO 1009/1013 1 1/2SM -SN BKN007 OVC015
     FM101400 29012KT P6SM SCT020 BKN050
     FM101700 27017G24KT P6SM BKN040=



000
FTUS41 KOKX 100227 AAA
TAFISP
TAF AMD
KISP 100227Z 1002/1024 VRB02KT P6SM -SN FEW020 OVC060
     FM100600 VRB02KT 3SM -SN BKN020 OVC035
      TEMPO 1010/1014 2SM -SN OVC009
     FM101600 28013KT P6SM SCT015 BKN035
     FM101900 27014G21KT P6SM BKN050=



000
FTUS41 KOKX 100227 AAA
TAFSWF
TAF AMD
KSWF 100227Z 1002/1106 VRB02KT P6SM OVC050
     FM100500 VRB02KT 5SM -SN BKN025 OVC040
      TEMPO 1008/1011 2SM -SN OVC019
     FM101300 27008KT P6SM SCT025 BKN040
     FM101700 28011KT P6SM BKN040
     FM110000 27008KT P6SM BKN040
      AMD NOT SKED=



000
FTUS41 KOKX 100227 AAA
TAFGON
TAF AMD
KGON 100227Z 1002/1024 03004KT P6SM FEW060 BKN090
     FM100600 VRB02KT 5SM -SN BKN025 OVC040
     FM101700 27008KT P6SM BKN035
     FM102000 27009KT P6SM BKN050=



000
FTUS41 KOKX 100227 AAA
TAFEWR
TAF AMD
KEWR 100227Z 1002/1106 VRB03KT P6SM -SN FEW020 BKN050
     FM100400 VRB03KT 4SM -SN BKN012 OVC020
      TEMPO 1008/1012 1 1/2SM -SN OVC007
     FM101300 28011KT P6SM SCT015 BKN035
     FM101600 27016G23KT P6SM BKN040=



000
FTUS41 KOKX 100227 AAA
TAFBDR
TAF AMD
KBDR 100227Z 1002/1024 VRB02KT P6SM FEW025 OVC060
     FM100600 VRB03KT 5SM -SN BKN025 OVC040
      TEMPO 1010/1014 2SM -SN OVC015
     FM101600 28011KT P6SM SCT020 BKN035
     FM101900 27012G19KT P6SM BKN050=



000
FTUS41 KOKX 100227 AAA
TAFTEB
TAF AMD
KTEB 100227Z 1002/1024 VRB02KT P6SM -SN FEW025 OVC050
     FM100400 VRB03KT 5SM -SN BKN010 OVC020
      TEMPO 1008/1012 1 1/2SM -SN OVC006
     FM101300 29009KT P6SM SCT015 BKN035
     FM101600 27012G22KT P6SM BKN040=



000
FTUS41 KOKX 100227 AAA
TAFLGA
TAF AMD
KLGA 100227Z 1002/1024 13006KT P6SM -SN FEW025 OVC040
     FM100500 VRB04KT 5SM -SN BKN025 OVC040
      TEMPO 1009/1013 1 1/2SM -SN BKN010 OVC020
     FM101400 29012KT P6SM SCT020 BKN050
     FM101700 27015G25KT P6SM BKN050=



000
FTUS41 KOKX 100227 AAA
TAFISP
TAF AMD
KISP 100227Z 1002/1024 VRB02KT P6SM -SN FEW020 OVC060
     FM100600 VRB02KT 3SM -SN BKN020 OVC035
      TEMPO 1010/1014 2SM -SN OVC009
     FM101600 28013KT P6SM SCT015 BKN035
     FM101900 27014G21KT P6SM BKN050=



000
FTUS41 KOKX 100227 AAA
TAFEWR
TAF AMD
KEWR 100227Z 1002/1106 VRB03KT P6SM -SN FEW020 BKN050
     FM100400 VRB03KT 4SM -SN BKN012 OVC020
      TEMPO 1008/1012 1 1/2SM -SN OVC007
     FM101300 28011KT P6SM SCT015 BKN035
     FM101600 27016G23KT P6SM BKN040=



000
FTUS41 KOKX 100227 AAA
TAFJFK
TAF AMD
KJFK 100227Z 1002/1106 11003KT P6SM -SN FEW020 BKN040 OVC060
     FM100500 VRB04KT 5SM -SN BKN020 OVC040
      TEMPO 1009/1013 1 1/2SM -SN BKN007 OVC015
     FM101400 29012KT P6SM SCT020 BKN050
     FM101700 27017G24KT P6SM BKN040=



000
FTUS41 KOKX 100227 AAA
TAFGON
TAF AMD
KGON 100227Z 1002/1024 03004KT P6SM FEW060 BKN090
     FM100600 VRB02KT 5SM -SN BKN025 OVC040
     FM101700 27008KT P6SM BKN035
     FM102000 27009KT P6SM BKN050=



000
FTUS41 KOKX 100227 AAA
TAFSWF
TAF AMD
KSWF 100227Z 1002/1106 VRB02KT P6SM OVC050
     FM100500 VRB02KT 5SM -SN BKN025 OVC040
      TEMPO 1008/1011 2SM -SN OVC019
     FM101300 27008KT P6SM SCT025 BKN040
     FM101700 28011KT P6SM BKN040
     FM110000 27008KT P6SM BKN040
      AMD NOT SKED=



000
FTUS41 KOKX 100227 AAA
TAFBDR
TAF AMD
KBDR 100227Z 1002/1024 VRB02KT P6SM FEW025 OVC060
     FM100600 VRB03KT 5SM -SN BKN025 OVC040
      TEMPO 1010/1014 2SM -SN OVC015
     FM101600 28011KT P6SM SCT020 BKN035
     FM101900 27012G19KT P6SM BKN050=



000
FTUS41 KOKX 092320
TAFJFK
TAF
KJFK 092320Z 1000/1106 10005KT P6SM SCT030 BKN060
      TEMPO 1001/1005 3SM -SN BKN020 OVC030
     FM100500 VRB04KT 1SM -SN BR BKN007 OVC012
      TEMPO 1008/1012 1/2SM SN OVC007
     FM101400 29012KT P6SM SCT020 BKN050
     FM101700 27017G24KT P6SM BKN040=



000
FTUS41 KOKX 092320
TAFLGA
TAF
KLGA 092320Z 1000/1024 07006KT P6SM FEW025 BKN060
      TEMPO 1001/1005 3SM -SN BKN025 OVC035
     FM100500 VRB04KT 1SM -SN BR BKN007 OVC012
      TEMPO 1008/1012 1/2SM SN OVC007
     FM101400 29012KT P6SM SCT020 BKN050
     FM101700 27015G25KT P6SM BKN050=



000
FTUS41 KOKX 092320
TAFEWR
TAF
KEWR 092320Z 1000/1106 VRB03KT P6SM FEW015 SCT025 BKN080
      TEMPO 1000/1004 3SM -SN BKN015 OVC025
     FM100400 VRB03KT 1SM -SN BR BKN006 OVC010
      TEMPO 1007/1011 1/2SM SN OVC006
     FM101300 28011KT P6SM SCT015 BKN035
     FM101600 27016G23KT P6SM BKN040=



000
FTUS41 KOKX 092320
TAFBDR
TAF
KBDR 092320Z 1000/1024 VRB03KT P6SM SCT070 BKN150
     FM100300 VRB03KT P6SM FEW012 SCT025 BKN080
      TEMPO 1003/1006 2SM -SN SCT012 BKN020
     FM100600 VRB03KT 1SM -SN BR BKN010 OVC020
      TEMPO 1009/1013 1/2SM SN OVC005
     FM101600 28011KT P6SM SCT010 BKN025
     FM101900 27012G19KT P6SM BKN050=



000
FTUS41 KOKX 092320
TAFISP
TAF
KISP 092320Z 1000/1024 VRB02KT P6SM FEW020 BKN150
     FM100300 VRB03KT P6SM FEW015 SCT020 BKN080
      TEMPO 1003/1006 2SM -SN SCT015 BKN020
     FM100600 VRB02KT 1SM -SN BR BKN008 OVC012
      TEMPO 1009/1013 1/2SM SN OVC005
     FM101600 28013KT P6SM SCT010 BKN025
     FM101900 27014G21KT P6SM BKN050=



000
FTUS41 KOKX 092320
TAFSWF
TAF
KSWF 092320Z 1000/1106 VRB02KT P6SM SCT050 BKN080
      TEMPO 1001/1004 3SM -SN SCT020 BKN030
     FM100400 VRB02KT 1SM -SN BR BKN009 OVC015
      TEMPO 1008/1011 1/2SM SN OVC005
     FM101300 27008KT P6SM SCT020 BKN035
     FM101700 28011KT P6SM BKN040
     FM110000 27008KT P6SM BKN040
      AMD NOT SKED=



000
FTUS41 KOKX 092320
TAFTEB
TAF
KTEB 092320Z 1000/1024 VRB02KT P6SM FEW020 BKN080
      TEMPO 1000/1004 4SM -SN BKN020 OVC030
     FM100400 VRB03KT 1SM -SN BR BKN007 OVC010
      TEMPO 1007/1011 1/2SM SN OVC006
     FM101300 29009KT P6SM SCT015 BKN035
     FM101600 27012G22KT P6SM BKN040=



000
FTUS41 KOKX 092320
TAFGON
TAF
KGON 092320Z 1000/1024 03004KT P6SM FEW025 BKN150
     FM100400 04004KT P6SM BKN025
      TEMPO 1004/1007 2SM -SN BKN012
     FM100700 VRB02KT 1SM -SN BR BKN006 OVC012
     FM101700 27008KT P6SM SCT007 BKN020
     FM102000 27009KT P6SM FEW020 BKN050=



000
FTUS41 KOKX 092114 AAB
TAFLGA
TAF AMD
KLGA 092114Z 0921/1018 08008KT P6SM OVC025
      TEMPO 0921/0923 SCT025 BKN050
     FM100300 VRB04KT 1SM -SN BR BKN007 OVC012
      TEMPO 1008/1012 1/2SM SN OVC007
     FM101400 30010KT P6SM SCT015 BKN030
     FM101700 28014G22KT P6SM BKN040=



000
FTUS41 KOKX 092033 AAA
TAFEWR
TAF AMD
KEWR 092033Z 0921/1024 VRB03KT P6SM OVC020
     FM100200 VRB03KT 1SM -SN BR BKN007 OVC010
      TEMPO 1007/1011 1/2SM SN OVC006
     FM101300 28009KT P6SM SCT015 BKN030
     FM101700 27015G23KT P6SM BKN040=



000
FTUS41 KOKX 092033 AAA
TAFISP
TAF AMD
KISP 092033Z 0921/1018 VRB05KT P6SM BKN015
      TEMPO 0921/0923 SCT015 BKN035
     FM100400 VRB04KT 1SM -SN BR BKN006 OVC012
      TEMPO 1009/1013 1/2SM SN OVC005
     FM101500 29010KT P6SM SCT010 BKN025=



000
FTUS41 KOKX 092033 AAA
TAFTEB
TAF AMD
KTEB 092033Z 0921/1018 VRB03KT P6SM OVC020
     FM100200 VRB03KT 1SM -SN BR BKN007 OVC010
      TEMPO 1007/1011 1/2SM SN OVC006
     FM101300 29007KT P6SM SCT015 BKN030
     FM101700 27012G20KT P6SM BKN040=



000
FTUS41 KOKX 092033 AAA
TAFBDR
TAF AMD
KBDR 092033Z 0921/1018 12005KT P6SM SCT015 SCT060
     FM100000 VRB04KT P6SM OVC015
     FM100500 VRB04KT 1SM -SN BR BKN006 OVC012
      TEMPO 1009/1013 1/2SM SN OVC005
     FM101500 30009KT P6SM SCT015 BKN030=



000
FTUS41 KOKX 092033 AAA
TAFJFK
TAF AMD
KJFK 092033Z 0921/1024 10005KT P6SM OVC015
      TEMPO 0921/0923 SCT015 BKN035
     FM100300 VRB04KT 1SM -SN BR BKN007 OVC012
      TEMPO 1008/1012 1/2SM SN OVC007
     FM101400 28012KT P6SM SCT015 BKN030
     FM101700 27016G24KT P6SM BKN040=



000
FTUS41 KOKX 092033 AAA
TAFGON
TAF AMD
KGON 092033Z 0921/1018 VRB04KT P6SM OVC025
      TEMPO 0921/0923 SCT015 BKN035
     FM100700 VRB04KT 1SM -SN BR BKN006 OVC012
      TEMPO 1011/1015 1/2SM SN OVC005
     FM101700 VRB04KT P6SM SCT007 BKN020=



000
FTUS41 KOKX 092033 AAA
TAFSWF
TAF AMD
KSWF 092033Z 0921/1024 VRB04KT P6SM SCT025 BKN060
     FM100300 VRB03KT 1SM -SN BR BKN006 OVC012
      TEMPO 1008/1012 1/2SM SN OVC005
     FM101300 27005KT P6SM SCT010 BKN025
     FM101700 27011G19KT P6SM BKN040
      AMD NOT SKED=



000
FTUS41 KOKX 092033 AAA
TAFLGA
TAF AMD
KLGA 092033Z 0921/1018 09005KT P6SM OVC025
      TEMPO 0921/0923 SCT015 BKN035
     FM100300 VRB04KT 1SM -SN BR BKN007 OVC012
      TEMPO 1008/1012 1/2SM SN OVC007
     FM101400 30010KT P6SM SCT015 BKN030
     FM101700 28014G22KT P6SM BKN040=



000
FTUS41 KOKX 091732
TAFTEB
TAF
KTEB 091732Z 0918/1018 05005KT P6SM OVC015
     FM092100 VRB04KT P6SM OVC012
     FM100200 VRB04KT 1SM -SN BR BKN007 OVC010
      TEMPO 1007/1011 1/2SM SN OVC006
     FM101300 29007KT P6SM SCT015 BKN030
     FM101700 27012G20KT P6SM BKN040=



000
FTUS41 KOKX 091732
TAFBDR
TAF
KBDR 091732Z 0918/1018 03005KT P6SM SCT015
     FM092100 VRB04KT P6SM OVC015
     FM100500 VRB04KT 1SM -SN BR BKN006 OVC012
      TEMPO 1009/1013 1/2SM SN OVC005
     FM101500 30009KT P6SM SCT015 BKN030=



000
FTUS41 KOKX 091732
TAFGON
TAF
KGON 091732Z 0918/1018 01007KT P6SM OVC015
     FM092200 VRB04KT P6SM OVC012
     FM100700 VRB04KT 1SM -SN BR BKN006 OVC012
      TEMPO 1011/1015 1/2SM SN OVC005
     FM101700 VRB04KT P6SM SCT007 BKN020=



000
FTUS41 KOKX 091732
TAFEWR
TAF
KEWR 091732Z 0918/1024 03008KT P6SM OVC012
     FM092100 08006KT P6SM OVC011
     FM100200 VRB04KT 1SM -SN BR BKN007 OVC010
      TEMPO 1007/1011 1/2SM SN OVC006
     FM101300 28009KT P6SM SCT015 BKN030
     FM101700 27015G23KT P6SM BKN040=



000
FTUS41 KOKX 091732
TAFLGA
TAF
KLGA 091732Z 0918/1018 08008KT P6SM OVC015
     FM100300 VRB04KT 1SM -SN BR BKN007 OVC012
      TEMPO 1008/1012 1/2SM SN OVC007
     FM101400 30010KT P6SM SCT015 BKN030
     FM101700 28014G22KT P6SM BKN040=



000
FTUS41 KOKX 091732
TAFSWF
TAF
KSWF 091732Z 0918/1024 VRB04KT P6SM SCT040 SCT070
     FM092200 VRB04KT P6SM OVC015
     FM100300 VRB03KT 1SM -SN BR BKN006 OVC012
      TEMPO 1008/1012 1/2SM SN OVC005
     FM101300 27005KT P6SM SCT010 BKN025
     FM101700 27011G19KT P6SM BKN040
      AMD NOT SKED=



000
FTUS41 KOKX 091732
TAFJFK
TAF
KJFK 091732Z 0918/1024 03008KT P6SM BKN015
     FM092100 11007KT P6SM OVC012
     FM100300 VRB04KT 1SM -SN BR BKN007 OVC012
      TEMPO 1008/1012 1/2SM SN OVC007
     FM101400 28012KT P6SM SCT015 BKN030
     FM101700 27016G24KT P6SM BKN040=



000
FTUS41 KOKX 091732
TAFISP
TAF
KISP 091732Z 0918/1018 03008KT P6SM BKN015
     FM092200 VRB05KT P6SM OVC012
     FM100400 VRB04KT 1SM -SN BR BKN006 OVC012
      TEMPO 1009/1013 1/2SM SN OVC005
     FM101500 29010KT P6SM SCT010 BKN025=



000
FTUS41 KOKX 091732
TAFSWF
TAF
KSWF 091732Z 0918/1024 VRB04KT P6SM SCT040 SCT070
     FM092200 VRB04KT P6SM OVC015
     FM100300 VRB03KT 1SM -SN BR BKN006 OVC012
      TEMPO 1008/1012 1/2SM SN OVC005
     FM101300 27005KT P6SM SCT010 BKN025
     FM101700 27011G19KT P6SM BKN040
      AMD NOT SKED=



000
FTUS41 KOKX 091732
TAFJFK
TAF
KJFK 091732Z 0918/1024 03008KT P6SM BKN015
     FM092100 11007KT P6SM OVC012
     FM100300 VRB04KT 1SM -SN BR BKN007 OVC012
      TEMPO 1008/1012 1/2SM SN OVC007
     FM101400 28012KT P6SM SCT015 BKN030
     FM101700 27016G24KT P6SM BKN040=



000
FTUS41 KOKX 091732
TAFISP
TAF
KISP 091732Z 0918/1018 03008KT P6SM BKN015
     FM092200 VRB05KT P6SM OVC012
     FM100400 VRB04KT 1SM -SN BR BKN006 OVC012
      TEMPO 1009/1013 1/2SM SN OVC005
     FM101500 29010KT P6SM SCT010 BKN025=



000
FTUS41 KOKX 091732
TAFGON
TAF
KGON 091732Z 0918/1018 01007KT P6SM OVC015
     FM092200 VRB04KT P6SM OVC012
     FM100700 VRB04KT 1SM -SN BR BKN006 OVC012
      TEMPO 1011/1015 1/2SM SN OVC005
     FM101700 VRB04KT P6SM SCT007 BKN020=



000
FTUS41 KOKX 091732
TAFTEB
TAF
KTEB 091732Z 0918/1018 05005KT P6SM OVC015
     FM092100 VRB04KT P6SM OVC012
     FM100200 VRB04KT 1SM -SN BR BKN007 OVC010
      TEMPO 1007/1011 1/2SM SN OVC006
     FM101300 29007KT P6SM SCT015 BKN030
     FM101700 27012G20KT P6SM BKN040=



000
FTUS41 KOKX 091732
TAFEWR
TAF
KEWR 091732Z 0918/1024 03008KT P6SM OVC012
     FM092100 08006KT P6SM OVC011
     FM100200 VRB04KT 1SM -SN BR BKN007 OVC010
      TEMPO 1007/1011 1/2SM SN OVC006
     FM101300 28009KT P6SM SCT015 BKN030
     FM101700 27015G23KT P6SM BKN040=



000
FTUS41 KOKX 091732
TAFBDR
TAF
KBDR 091732Z 0918/1018 03005KT P6SM SCT015
     FM092100 VRB04KT P6SM OVC015
     FM100500 VRB04KT 1SM -SN BR BKN006 OVC012
      TEMPO 1009/1013 1/2SM SN OVC005
     FM101500 30009KT P6SM SCT015 BKN030=



000
FTUS41 KOKX 091732
TAFLGA
TAF
KLGA 091732Z 0918/1018 08008KT P6SM OVC015
     FM100300 VRB04KT 1SM -SN BR BKN007 OVC012
      TEMPO 1008/1012 1/2SM SN OVC007
     FM101400 30010KT P6SM SCT015 BKN030
     FM101700 28014G22KT P6SM BKN040=



000
FTUS41 KOKX 091433 AAA
TAFEWR
TAF AMD
KEWR 091433Z 0915/1018 02010KT P6SM OVC015
     FM092200 05006KT P6SM OVC015
     FM100100 05006KT 2SM -SN BR BKN007 OVC012
     FM100600 04005KT 1SM -SN BR OVC007
     FM101500 28010KT P6SM SCT012 BKN030=



000
FTUS41 KOKX 091433 AAA
TAFJFK
TAF AMD
KJFK 091433Z 0915/1018 04012KT P6SM OVC015
     FM092200 04008KT P6SM OVC015
     FM100100 04008KT 2SM -SN BR BKN007 OVC012
     FM100900 01006KT 1SM -SN BR OVC007
     FM101500 28011KT P6SM SCT012 BKN030=



000
FTUS41 KOKX 091433 AAA
TAFGON
TAF AMD
KGON 091433Z 0915/1012 02009KT P6SM OVC015
     FM092200 04006KT P6SM OVC015
     FM100100 03004KT 2SM -SN BR BKN007 OVC010
     FM100900 01006KT 1SM -SN BR OVC007=



000
FTUS41 KOKX 091433 AAA
TAFISP
TAF AMD
KISP 091433Z 0915/1012 03010KT P6SM OVC015
     FM092200 05007KT P6SM OVC015
     FM100100 06005KT 2SM -SN BR BKN007 OVC010
     FM100900 01006KT 1SM -SN BR OVC007=



000
FTUS41 KOKX 091433 AAA
TAFBDR
TAF AMD
KBDR 091433Z 0915/1012 02008KT P6SM OVC015
     FM092200 05006KT P6SM OVC015
     FM100300 05004KT 2SM -SN BR BKN007 OVC010
     FM100900 01006KT 1SM -SN BR OVC007=



000
FTUS41 KOKX 091433 AAA
TAFTEB
TAF AMD
KTEB 091433Z 0915/1012 03007KT P6SM OVC015
     FM092200 06005KT P6SM OVC015
     FM100200 05004KT 2SM -SN BR BKN007 OVC012
     FM100900 01006KT 1SM -SN BR OVC007=



000
FTUS41 KOKX 091433 AAA
TAFLGA
TAF AMD
KLGA 091433Z 0915/1012 05013KT P6SM OVC015
     FM092200 05009KT P6SM OVC015
     FM100200 05007KT 2SM -SN BKN007 OVC012
     FM100900 01006KT 1SM -SN BR OVC007=



000
FTUS41 KOKX 091433 AAA
TAFEWR
TAF AMD
KEWR 091433Z 0915/1018 02010KT P6SM OVC015
     FM092200 05006KT P6SM OVC015
     FM100100 05006KT 2SM -SN BR BKN007 OVC012
     FM100600 04005KT 1SM -SN BR OVC007
     FM101500 28010KT P6SM SCT012 BKN030=



000
FTUS41 KOKX 091433 AAA
TAFJFK
TAF AMD
KJFK 091433Z 0915/1018 04012KT P6SM OVC015
     FM092200 04008KT P6SM OVC015
     FM100100 04008KT 2SM -SN BR BKN007 OVC012
     FM100900 01006KT 1SM -SN BR OVC007
     FM101500 28011KT P6SM SCT012 BKN030=



000
FTUS41 KOKX 091433 AAA
TAFLGA
TAF AMD
KLGA 091433Z 0915/1012 05013KT P6SM OVC015
     FM092200 05009KT P6SM OVC015
     FM100200 05007KT 2SM -SN BKN007 OVC012
     FM100900 01006KT 1SM -SN BR OVC007=



000
FTUS41 KOKX 091433 AAA
TAFBDR
TAF AMD
KBDR 091433Z 0915/1012 02008KT P6SM OVC015
     FM092200 05006KT P6SM OVC015
     FM100300 05004KT 2SM -SN BR BKN007 OVC010
     FM100900 01006KT 1SM -SN BR OVC007=



000
FTUS41 KOKX 091433 AAA
TAFTEB
TAF AMD
KTEB 091433Z 0915/1012 03007KT P6SM OVC015
     FM092200 06005KT P6SM OVC015
     FM100200 05004KT 2SM -SN BR BKN007 OVC012
     FM100900 01006KT 1SM -SN BR OVC007=



000
FTUS41 KOKX 091433 AAA
TAFGON
TAF AMD
KGON 091433Z 0915/1012 02009KT P6SM OVC015
     FM092200 04006KT P6SM OVC015
     FM100100 03004KT 2SM -SN BR BKN007 OVC010
     FM100900 01006KT 1SM -SN BR OVC007=



000
FTUS41 KOKX 091433 AAA
TAFISP
TAF AMD
KISP 091433Z 0915/1012 03010KT P6SM OVC015
     FM092200 05007KT P6SM OVC015
     FM100100 06005KT 2SM -SN BR BKN007 OVC010
     FM100900 01006KT 1SM -SN BR OVC007=



000
FTUS41 KOKX 091132
TAFJFK
TAF
KJFK 091132Z 0912/1018 04009KT P6SM SCT008 OVC012
     FM091300 04011KT P6SM OVC015
     FM092200 04008KT P6SM OVC015
     FM100100 04008KT 2SM -SN BR BKN007 OVC012
     FM100900 01006KT 1SM -SN BR OVC007
     FM101500 28011KT P6SM SCT012 BKN030=



000
FTUS41 KOKX 091132
TAFSWF
TAF
KSWF 091132Z 0912/1018 07005KT 6SM BR SCT008 OVC012
     FM091400 08005KT P6SM SCT015 BKN020
     FM100400 08004KT 2SM -SN BKN008 BKN015
     FM101400 27008KT P6SM SCT015 BKN030
      AMD NOT SKED=



000
FTUS41 KOKX 091132
TAFBDR
TAF
KBDR 091132Z 0912/1012 02006KT P6SM OVC012
     FM091300 04008KT P6SM OVC015
     FM092200 05006KT P6SM OVC015
     FM100300 05004KT 2SM -SN BR BKN007 OVC010
     FM100900 01006KT 1SM -SN BR OVC007=



000
FTUS41 KOKX 091132
TAFEWR
TAF
KEWR 091132Z 0912/1018 03007KT P6SM SCT008 OVC012
     FM091300 04009KT P6SM OVC015
     FM092200 05006KT P6SM OVC015
     FM100100 05006KT 2SM -SN BR BKN007 OVC012
     FM100600 04005KT 1SM -SN BR OVC007
     FM101500 28010KT P6SM SCT012 BKN030=



000
FTUS41 KOKX 091132
TAFISP
TAF
KISP 091132Z 0912/1012 04005KT P6SM OVC012
     FM091300 04010KT P6SM OVC015
     FM092200 05007KT P6SM OVC015
     FM100100 06005KT 2SM -SN BR BKN007 OVC010
     FM100900 01006KT 1SM -SN BR OVC007=



000
FTUS41 KOKX 091132
TAFLGA
TAF
KLGA 091132Z 0912/1012 04008KT P6SM SCT008 OVC012
     FM091300 05010KT P6SM OVC015
     FM092200 05009KT P6SM OVC015
     FM100200 05007KT 2SM -SN BKN007 OVC012
     FM100900 01006KT 1SM -SN BR OVC007=



000
FTUS41 KOKX 091132
TAFTEB
TAF
KTEB 091132Z 0912/1012 05004KT P6SM OVC012
     FM091300 04007KT P6SM OVC015
     FM092200 06005KT P6SM OVC015
     FM100200 05004KT 2SM -SN BR BKN007 OVC012
     FM100900 01006KT 1SM -SN BR OVC007=



000
FTUS41 KOKX 091132
TAFGON
TAF
KGON 091132Z 0912/1012 02007KT P6SM SCT015 OVC030
     FM091300 03009KT P6SM OVC015
     FM092200 04006KT P6SM OVC015
     FM100100 03004KT 2SM -SN BR BKN007 OVC010
     FM100900 01006KT 1SM -SN BR OVC007=



000
FTUS41 KOKX 091132
TAFJFK
TAF
KJFK 091132Z 0912/1018 04009KT P6SM SCT008 OVC012
     FM091300 04011KT P6SM OVC015
     FM092200 04008KT P6SM OVC015
     FM100100 04008KT 2SM -SN BR BKN007 OVC012
     FM100900 01006KT 1SM -SN BR OVC007
     FM101500 28011KT P6SM SCT012 BKN030=



000
FTUS41 KOKX 091132
TAFGON
TAF
KGON 091132Z 0912/1012 02007KT P6SM SCT015 OVC030
     FM091300 03009KT P6SM OVC015
     FM092200 04006KT P6SM OVC015
     FM100100 03004KT 2SM -SN BR BKN007 OVC010
     FM100900 01006KT 1SM -SN BR OVC007=



000
FTUS41 KOKX 091132
TAFTEB
TAF
KTEB 091132Z 0912/1012 05004KT P6SM OVC012
     FM091300 04007KT P6SM OVC015
     FM092200 06005KT P6SM OVC015
     FM100200 05004KT 2SM -SN BR BKN007 OVC012
     FM100900 01006KT 1SM -SN BR OVC007=



000
FTUS41 KOKX 091132
TAFEWR
TAF
KEWR 091132Z 0912/1018 03007KT P6SM SCT008 OVC012
     FM091300 04009KT P6SM OVC015
     FM092200 05006KT P6SM OVC015
     FM100100 05006KT 2SM -SN BR BKN007 OVC012
     FM100600 04005KT 1SM -SN BR OVC007
     FM101500 28010KT P6SM SCT012 BKN030=



000
FTUS41 KOKX 091132
TAFBDR
TAF
KBDR 091132Z 0912/1012 02006KT P6SM OVC012
     FM091300 04008KT P6SM OVC015
     FM092200 05006KT P6SM OVC015
     FM100300 05004KT 2SM -SN BR BKN007 OVC010
     FM100900 01006KT 1SM -SN BR OVC007=



000
FTUS41 KOKX 091132
TAFSWF
TAF
KSWF 091132Z 0912/1018 07005KT 6SM BR SCT008 OVC012
     FM091400 08005KT P6SM SCT015 BKN020
     FM100400 08004KT 2SM -SN BKN008 BKN015
     FM101400 27008KT P6SM SCT015 BKN030
      AMD NOT SKED=



000
FTUS41 KOKX 091132
TAFLGA
TAF
KLGA 091132Z 0912/1012 04008KT P6SM SCT008 OVC012
     FM091300 05010KT P6SM OVC015
     FM092200 05009KT P6SM OVC015
     FM100200 05007KT 2SM -SN BKN007 OVC012
     FM100900 01006KT 1SM -SN BR OVC007=



000
FTUS41 KOKX 091132
TAFISP
TAF
KISP 091132Z 0912/1012 04005KT P6SM OVC012
     FM091300 04010KT P6SM OVC015
     FM092200 05007KT P6SM OVC015
     FM100100 06005KT 2SM -SN BR BKN007 OVC010
     FM100900 01006KT 1SM -SN BR OVC007=



000
FTUS41 KOKX 090835 AAA
TAFLGA
TAF AMD
KLGA 090835Z 0909/1006 04008KT 6SM BR SCT008 OVC012
     FM091300 05010KT P6SM OVC015
     FM092200 05009KT P6SM OVC015
     FM100200 05007KT 2SM -SN BKN007 OVC012=



000
FTUS41 KOKX 090835 AAA
TAFJFK
TAF AMD
KJFK 090835Z 0909/1012 04009KT 6SM BR SCT008 OVC012
     FM091300 04011KT P6SM OVC015
     FM092200 04008KT P6SM OVC015
     FM100100 04008KT 2SM -SN BR BKN007 OVC012
     FM100900 01006KT 1SM -SN BR OVC007=



000
FTUS41 KOKX 090835 AAA
TAFISP
TAF AMD
KISP 090835Z 0909/1006 04005KT 6SM BR OVC012
     FM091300 04010KT P6SM OVC015
     FM092200 05007KT P6SM OVC015
     FM100100 06005KT 2SM -SN BR BKN007 OVC010=



000
FTUS41 KOKX 090835 AAA
TAFBDR
TAF AMD
KBDR 090835Z 0909/1006 02006KT 6SM BR OVC012
     FM091300 04008KT P6SM OVC015
     FM092200 05006KT P6SM OVC015
     FM100300 05004KT 2SM -SN BR BKN007 OVC010=



000
FTUS41 KOKX 090835 AAA
TAFSWF
TAF AMD
KSWF 090835Z 0909/1012 07005KT 6SM BR SCT008 OVC012
     FM091400 08005KT P6SM SCT015 BKN020
     FM100400 08004KT 2SM -SN BKN008 BKN015
      AMD NOT SKED=



000
FTUS41 KOKX 090835 AAA
TAFEWR
TAF AMD
KEWR 090835Z 0909/1012 03007KT 6SM BR SCT008 OVC012
     FM091300 04009KT P6SM OVC015
     FM092200 05006KT P6SM OVC015
     FM100100 05006KT 2SM -SN BR BKN007 OVC012
     FM100600 04005KT 1SM -SN BR OVC007=



000
FTUS41 KOKX 090835 AAA
TAFTEB
TAF AMD
KTEB 090835Z 0909/1006 05004KT 6SM BR OVC012
     FM091300 04007KT P6SM OVC015
     FM092200 06005KT P6SM OVC015
     FM100200 05004KT 2SM -SN BR BKN007 OVC012=



000
FTUS41 KOKX 090835 AAA
TAFGON
TAF AMD
KGON 090835Z 0909/1006 02007KT P6SM BKN015 OVC035
     FM091300 03009KT P6SM OVC015
     FM092200 04006KT P6SM OVC015
     FM100100 03004KT 2SM -SN BR BKN007 OVC010=



000
FTUS41 KOKX 090548
TAFGON
TAF
KGON 090548Z 0906/1006 01010KT 6SM BR SCT015 OVC040
     FM090900 02007KT P6SM BKN015 OVC035
     FM091300 03009KT P6SM OVC015
     FM092200 04006KT P6SM OVC015
     FM100100 03004KT 2SM -SN BR BKN007 OVC010=



000
FTUS41 KOKX 090548
TAFJFK
TAF
KJFK 090548Z 0906/1012 04008KT P6SM -SN BKN008 OVC012
     FM090800 04009KT 6SM BR SCT008 OVC012
     FM091300 04011KT P6SM OVC015
     FM092200 04008KT P6SM OVC015
     FM100100 04008KT 2SM -SN BR BKN007 OVC012
     FM100900 01006KT 1SM -SN BR OVC007=



000
FTUS41 KOKX 090548
TAFISP
TAF
KISP 090548Z 0906/1006 04006KT 6SM -SN BR SCT008 OVC015
     FM090900 04005KT 6SM BR OVC012
     FM091300 04010KT P6SM OVC015
     FM092200 05007KT P6SM OVC015
     FM100100 06005KT 2SM -SN BR BKN007 OVC010=



000
FTUS41 KOKX 090548
TAFSWF
TAF
KSWF 090548Z 0906/1012 07008KT 2SM -SN BR BKN008 OVC015
     FM090900 07005KT 6SM BR SCT008 OVC012
     FM091400 08005KT P6SM SCT015 BKN020
     FM100400 08004KT 2SM -SN BKN008 BKN015
      AMD NOT SKED=



000
FTUS41 KOKX 090548
TAFEWR
TAF
KEWR 090548Z 0906/1012 03008KT P6SM -SN BKN008 OVC012
     FM090800 03007KT 6SM BR SCT008 OVC012
     FM091300 04009KT P6SM OVC015
     FM092200 05006KT P6SM OVC015
     FM100100 05006KT 2SM -SN BR BKN007 OVC012
     FM100600 04005KT 1SM -SN BR OVC007=



000
FTUS41 KOKX 090548
TAFBDR
TAF
KBDR 090548Z 0906/1006 02007KT 6SM -SN BR BKN015 OVC035
     FM090800 02006KT 6SM BR OVC012
     FM091300 04008KT P6SM OVC015
     FM092200 05006KT P6SM OVC015
     FM100300 05004KT 2SM -SN BR BKN007 OVC010=



000
FTUS41 KOKX 090548
TAFTEB
TAF
KTEB 090548Z 0906/1006 05006KT 4SM -SN BR BKN012
     FM090800 05004KT 6SM BR OVC012
     FM091300 04007KT P6SM OVC015
     FM092200 06005KT P6SM OVC015
     FM100200 05004KT 2SM -SN BR BKN007 OVC012=



000
FTUS41 KOKX 090548
TAFLGA
TAF
KLGA 090548Z 0906/1006 03009KT P6SM -SN BKN008 OVC012
     FM090800 04008KT 6SM BR SCT008 OVC012
     FM091300 05010KT P6SM OVC015
     FM092200 05009KT P6SM OVC015
     FM100200 05007KT 2SM -SN BKN007 OVC012=



000
FTUS41 KOKX 090331 AAB
TAFLGA
TAF AMD
KLGA 090331Z 0904/0924 03009KT P6SM -FZDZSN OVC015
     FM090500 05008KT 6SM BR SCT008 OVC015
     FM091100 05010KT P6SM SCT008 OVC012
     FM091500 04012KT P6SM OVC015
     FM092200 06009KT P6SM OVC015=



000
FTUS41 KOKX 090232 AAA
TAFGON
TAF AMD
KGON 090232Z 0903/0924 01009KT 3SM -SN BR SCT008 OVC040
     FM090500 02007KT 6SM BR BKN015
     FM091200 03009KT P6SM OVC015
     FM092200 04006KT P6SM OVC015=



000
FTUS41 KOKX 090232 AAA
TAFISP
TAF AMD
KISP 090232Z 0903/0924 03011KT 3SM -SN SCT020 OVC035
     FM090500 05006KT 6SM BR SCT008 OVC015
     FM091100 04009KT P6SM OVC012
     FM091500 05011KT P6SM OVC015
     FM092200 05007KT P6SM OVC015=



000
FTUS41 KOKX 090232 AAA
TAFSWF
TAF AMD
KSWF 090232Z 0903/1006 07008KT 6SM -SN BR OVC015
     FM090500 VRB05KT P6SM OVC015
     FM091500 06007KT P6SM SCT015 BKN025
     FM100300 08004KT 2SM -SN BKN008 BKN015
      AMD NOT SKED=



000
FTUS41 KOKX 090232 AAA
TAFTEB
TAF AMD
KTEB 090232Z 0903/0924 05006KT P6SM -SN BKN015
     FM090500 04005KT P6SM OVC015
     FM091200 04008KT P6SM OVC015
     FM092200 06005KT P6SM OVC015=



000
FTUS41 KOKX 090232 AAA
TAFEWR
TAF AMD
KEWR 090232Z 0903/1006 03008KT P6SM -SN OVC015
     FM091200 04009KT P6SM OVC015
     FM091500 04011KT P6SM OVC015
     FM092200 03007KT P6SM OVC015
     FM100100 04006KT 2SM -SN BR BKN007 OVC012=



000
FTUS41 KOKX 090232 AAA
TAFJFK
TAF AMD
KJFK 090232Z 0903/1006 04008KT P6SM -SN BKN015 OVC040
     FM090400 05007KT P6SM SCT008 OVC015
     FM091100 04011KT P6SM SCT008 OVC012
     FM091500 03013KT P6SM OVC015
     FM092200 02010KT P6SM OVC015
     FM100100 04008KT 2SM -SN BKN007 OVC012=



000
FTUS41 KOKX 090232 AAA
TAFLGA
TAF AMD
KLGA 090232Z 0903/0924 03009KT P6SM -SN OVC015
     FM090500 05008KT 6SM BR SCT008 OVC015
     FM091100 05010KT P6SM SCT008 OVC012
     FM091500 04012KT P6SM OVC015
     FM092200 06009KT P6SM OVC015=



000
FTUS41 KOKX 090232 AAA
TAFBDR
TAF AMD
KBDR 090232Z 0903/0924 03007KT 3SM -SN BR SCT015 OVC035
     FM090500 04006KT 6SM BR SCT008 OVC015
     FM091100 03009KT P6SM SCT008 OVC015
     FM091500 04011KT P6SM OVC015
     FM092200 07006KT P6SM OVC015=



000
FTUS41 KOKX 090232 AAA
TAFTEB
TAF AMD
KTEB 090232Z 0903/0924 05006KT P6SM -SN BKN015
     FM090500 04005KT P6SM OVC015
     FM091200 04008KT P6SM OVC015
     FM092200 06005KT P6SM OVC015=



000
FTUS41 KOKX 090232 AAA
TAFBDR
TAF AMD
KBDR 090232Z 0903/0924 03007KT 3SM -SN BR SCT015 OVC035
     FM090500 04006KT 6SM BR SCT008 OVC015
     FM091100 03009KT P6SM SCT008 OVC015
     FM091500 04011KT P6SM OVC015
     FM092200 07006KT P6SM OVC015=



000
FTUS41 KOKX 090232 AAA
TAFLGA
TAF AMD
KLGA 090232Z 0903/0924 03009KT P6SM -SN OVC015
     FM090500 05008KT 6SM BR SCT008 OVC015
     FM091100 05010KT P6SM SCT008 OVC012
     FM091500 04012KT P6SM OVC015
     FM092200 06009KT P6SM OVC015=



000
FTUS41 KOKX 090232 AAA
TAFJFK
TAF AMD
KJFK 090232Z 0903/1006 04008KT P6SM -SN BKN015 OVC040
     FM090400 05007KT P6SM SCT008 OVC015
     FM091100 04011KT P6SM SCT008 OVC012
     FM091500 03013KT P6SM OVC015
     FM092200 02010KT P6SM OVC015
     FM100100 04008KT 2SM -SN BKN007 OVC012=



000
FTUS41 KOKX 090232 AAA
TAFEWR
TAF AMD
KEWR 090232Z 0903/1006 03008KT P6SM -SN OVC015
     FM091200 04009KT P6SM OVC015
     FM091500 04011KT P6SM OVC015
     FM092200 03007KT P6SM OVC015
     FM100100 04006KT 2SM -SN BR BKN007 OVC012=



000
FTUS41 KOKX 090232 AAA
TAFGON
TAF AMD
KGON 090232Z 0903/0924 01009KT 3SM -SN BR SCT008 OVC040
     FM090500 02007KT 6SM BR BKN015
     FM091200 03009KT P6SM OVC015
     FM092200 04006KT P6SM OVC015=



000
FTUS41 KOKX 090232 AAA
TAFSWF
TAF AMD
KSWF 090232Z 0903/1006 07008KT 6SM -SN BR OVC015
     FM090500 VRB05KT P6SM OVC015
     FM091500 06007KT P6SM SCT015 BKN025
     FM100300 08004KT 2SM -SN BKN008 BKN015
      AMD NOT SKED=



000
FTUS41 KOKX 090232 AAA
TAFISP
TAF AMD
KISP 090232Z 0903/0924 03011KT 3SM -SN SCT020 OVC035
     FM090500 05006KT 6SM BR SCT008 OVC015
     FM091100 04009KT P6SM OVC012
     FM091500 05011KT P6SM OVC015
     FM092200 05007KT P6SM OVC015=



000
FTUS41 KOKX 082320
TAFJFK
TAF
KJFK 082320Z 0900/1006 03010KT P6SM -SN BKN015 OVC040
      TEMPO 0900/0904 3SM -SN
     FM090400 05008KT 6SM BR SCT008 OVC015
     FM091100 04011KT P6SM SCT008 OVC012
     FM091500 03013KT P6SM OVC015
     FM092200 02010KT P6SM OVC015
     FM100100 04008KT 2SM -SN BKN007 OVC012=



000
FTUS41 KOKX 082320
TAFBDR
TAF
KBDR 082320Z 0900/0924 03007KT 3SM -SN BR BKN015 OVC040
     FM090400 04006KT 6SM BR SCT008 OVC015
     FM091100 03009KT P6SM SCT008 OVC015
     FM091500 04011KT P6SM OVC015
     FM092200 07006KT P6SM OVC015=



000
FTUS41 KOKX 082320
TAFSWF
TAF
KSWF 082320Z 0900/1006 07008KT P6SM BKN025 OVC035
      TEMPO 0900/0902 4SM -SN
     FM090200 05006KT P6SM OVC015
     FM090600 VRB05KT P6SM OVC015
     FM091500 06007KT P6SM SCT015 BKN025
     FM100300 08004KT 2SM -SN BKN008 BKN015
      AMD NOT SKED=



000
FTUS41 KOKX 082320
TAFTEB
TAF
KTEB 082320Z 0900/0924 04006KT P6SM BKN015 OVC040
      TEMPO 0900/0903 4SM -SN
     FM090300 04005KT P6SM OVC015
     FM091200 04008KT P6SM OVC015
     FM092200 06005KT P6SM OVC015=



000
FTUS41 KOKX 082320
TAFGON
TAF
KGON 082320Z 0900/0924 01009KT 2SM -SN BR SCT008 OVC020
     FM090500 02007KT 6SM BR OVC015
     FM091200 03009KT P6SM OVC015
     FM092200 04006KT P6SM OVC015=



000
FTUS41 KOKX 082320
TAFLGA
TAF
KLGA 082320Z 0900/0924 03009KT P6SM -SN BKN015 OVC040
      TEMPO 0900/0904 3SM -SN
     FM090500 05008KT 6SM BR SCT008 OVC015
     FM091100 05010KT P6SM SCT008 OVC012
     FM091500 04012KT P6SM OVC015
     FM092200 06009KT P6SM OVC015=



000
FTUS41 KOKX 082320
TAFISP
TAF
KISP 082320Z 0900/0924 03011KT 3SM -SN BKN015 OVC040
     FM090400 05006KT 6SM BR SCT008 OVC015
     FM091100 04009KT P6SM OVC012
     FM091500 05011KT P6SM OVC015
     FM092200 05007KT P6SM OVC015=



000
FTUS41 KOKX 082320
TAFEWR
TAF
KEWR 082320Z 0900/1006 03007KT P6SM BKN015 OVC040
      TEMPO 0900/0903 4SM -SN BR
     FM090300 05006KT P6SM OVC015
     FM091200 04009KT P6SM OVC015
     FM091500 04011KT P6SM OVC015
     FM092200 03007KT P6SM OVC015
     FM100100 04006KT 2SM -SN BR BKN007 OVC012=



000
FTUS41 KOKX 082030 AAB
TAFGON
TAF AMD
KGON 082030Z 0821/0918 01018G28KT 2SM BR BKN025
     FM082300 02010KT 3SM -SN BR OVC008
      TEMPO 0903/0907 2SM -SN OVC005
     FM090700 02008KT 5SM -SN BKN008 OVC015 PROB30 0907/0913 2SM -SN
      OVC005
     FM091300 03012KT 4SM -SN BKN008 OVC015=



000
FTUS41 KOKX 082030 AAA
TAFISP
TAF AMD
KISP 082030Z 0821/0918 01016G24KT 1SM -SN OVC015
     FM082200 02010KT 3SM -SN BR OVC015
      TEMPO 0902/0906 2SM -SN OVC007
     FM090600 04008KT 5SM -SN SCT008 OVC015 PROB30 0906/0912 2SM -SN
      OVC007
     FM091200 04013KT 4SM -SN SCT008 OVC015
     FM091600 03015G22KT 5SM -SN OVC015=



000
FTUS41 KOKX 082030 AAB
TAFLGA
TAF AMD
KLGA 082030Z 0821/0918 04012G18KT P6SM SCT025 OVC050
     FM082300 02008KT P6SM OVC015
      TEMPO 0900/0904 2SM -SN OVC007
     FM090400 06011KT 5SM -SN SCT008 OVC015
     FM091100 05013KT 4SM -SN SCT008 OVC015
     FM091500 03015G22KT 5SM -SN OVC015=



000
FTUS41 KOKX 082030 AAB
TAFJFK
TAF AMD
KJFK 082030Z 0821/0924 01015G23KT P6SM SCT015 OVC050
     FM082300 02010KT P6SM OVC015
      TEMPO 0900/0904 2SM -SN OVC007
     FM090500 05011KT 5SM -SN SCT008 OVC015
     FM091100 04013KT 4SM -SN SCT008 OVC015
     FM091500 03015G22KT 5SM -SN OVC015
     FM092000 03010KT 5SM -SN OVC015=



000
FTUS41 KOKX 082030 AAA
TAFEWR
TAF AMD
KEWR 082030Z 0821/0924 05012KT P6SM FEW015 OVC050
     FM082300 03006KT P6SM OVC015
      TEMPO 0900/0904 2SM -SN OVC007
     FM090400 05008KT 5SM -SN SCT008 OVC015
     FM091000 02013KT 4SM -SN SCT008 OVC015
     FM091500 03013G21KT 5SM -SN OVC015
     FM092000 03010KT 5SM -SN OVC015=



000
FTUS41 KOKX 082030 AAA
TAFSWF
TAF AMD
KSWF 082030Z 0821/0924 05009KT P6SM OVC070
     FM082300 07008KT P6SM BKN025 OVC035
      TEMPO 0823/0903 2SM -SN OVC007
     FM090300 05008KT 5SM -SN SCT008 OVC015
     FM090900 VRB05KT 4SM -SN SCT008 OVC015
     FM091500 06008KT 5SM -SN OVC015
     FM092000 03010KT 5SM -SN OVC015
      AMD NOT SKED=



000
FTUS41 KOKX 082030 AAA
TAFBDR
TAF AMD
KBDR 082030Z 0821/0918 36008KT 1/2SM SN FZFG VV003
     FM082300 03008KT 3SM -SN BR OVC015
      TEMPO 0902/0906 2SM -SN OVC007
     FM090600 04008KT 5SM -SN SCT008 OVC015 PROB30 0906/0912 2SM -SN
      OVC007
     FM091200 04012KT 4SM -SN SCT008 OVC015
     FM091600 03013G21KT 5SM -SN OVC015=



000
FTUS41 KOKX 082030 AAB
TAFTEB
TAF AMD
KTEB 082030Z 0821/0918 36012KT P6SM OVC060
     FM082300 04008KT P6SM OVC015
      TEMPO 0900/0904 2SM -SN OVC007
     FM090400 05007KT 5SM -SN SCT008 OVC015
      TEMPO 0906/0910 2SM -SN OVC007
     FM091000 02010KT 4SM -SN SCT008 OVC015
     FM091500 03012KT 5SM -SN OVC015=



000
FTUS41 KOKX 081951 AAA
TAFGON
TAF AMD
KGON 081951Z 0820/0918 01018G28KT 4SM HZ BKN035
     FM082200 02010KT 3SM -SN BR OVC008
      TEMPO 0903/0907 2SM -SN OVC005
     FM090700 02008KT 5SM -SN BKN008 OVC015 PROB30 0907/0913 2SM -SN
      OVC005
     FM091300 03012KT 4SM -SN BKN008 OVC015=



000
FTUS41 KOKX 081951 AAA
TAFGON
TAF AMD
KGON 081951Z 0820/0918 01018G28KT 4SM HZ BKN035
     FM082200 02010KT 3SM -SN BR OVC008
      TEMPO 0903/0907 2SM -SN OVC005
     FM090700 02008KT 5SM -SN BKN008 OVC015 PROB30 0907/0913 2SM -SN
      OVC005
     FM091300 03012KT 4SM -SN BKN008 OVC015=



000
FTUS41 KOKX 081940 AAA
TAFTEB
TAF AMD
KTEB 081940Z 0820/0918 36012KT P6SM OVC060
     FM082300 04008KT P6SM OVC015
      TEMPO 0900/0904 2SM -SN OVC007
     FM090400 05007KT 5SM -SN SCT008 OVC015
      TEMPO 0906/0910 2SM -SN OVC007
     FM091000 02010KT 4SM -SN SCT008 OVC015
     FM091500 03012KT 5SM -SN OVC015=



000
FTUS41 KOKX 081940 AAA
TAFTEB
TAF AMD
KTEB 081940Z 0820/0918 36012KT P6SM OVC060
     FM082300 04008KT P6SM OVC015
      TEMPO 0900/0904 2SM -SN OVC007
     FM090400 05007KT 5SM -SN SCT008 OVC015
      TEMPO 0906/0910 2SM -SN OVC007
     FM091000 02010KT 4SM -SN SCT008 OVC015
     FM091500 03012KT 5SM -SN OVC015=



000
FTUS41 KOKX 081859 AAA
TAFJFK
TAF AMD
KJFK 081859Z 0819/0924 01016G24KT P6SM SCT015 BKN035
     FM082200 02010KT P6SM OVC015
      TEMPO 0901/0905 2SM -SN OVC007
     FM090500 05011KT 5SM -SN SCT008 OVC015 PROB30 0905/0911 2SM -SN
      OVC007
     FM091100 04013KT 4SM -SN SCT008 OVC015
     FM091500 03015G22KT 5SM -SN OVC015
     FM092000 03010KT 5SM -SN OVC015=



000
FTUS41 KOKX 081859 AAA
TAFJFK
TAF AMD
KJFK 081859Z 0819/0924 01016G24KT P6SM SCT015 BKN035
     FM082200 02010KT P6SM OVC015
      TEMPO 0901/0905 2SM -SN OVC007
     FM090500 05011KT 5SM -SN SCT008 OVC015 PROB30 0905/0911 2SM -SN
      OVC007
     FM091100 04013KT 4SM -SN SCT008 OVC015
     FM091500 03015G22KT 5SM -SN OVC015
     FM092000 03010KT 5SM -SN OVC015=



000
FTUS41 KOKX 081858 AAA
TAFLGA
TAF AMD
KLGA 081858Z 0819/0918 36012KT P6SM FEW025 OVC050
     FM082100 02008KT P6SM OVC025
      TEMPO 0901/0905 2SM -SN OVC007
     FM090500 06011KT 5SM -SN SCT008 OVC015 PROB30 0905/0911 2SM -SN
      OVC007
     FM091100 05013KT 4SM -SN SCT008 OVC015
     FM091500 03015G22KT 5SM -SN OVC015=



000
FTUS41 KOKX 081858 AAA
TAFLGA
TAF AMD
KLGA 081858Z 0819/0918 36012KT P6SM FEW025 OVC050
     FM082100 02008KT P6SM OVC025
      TEMPO 0901/0905 2SM -SN OVC007
     FM090500 06011KT 5SM -SN SCT008 OVC015 PROB30 0905/0911 2SM -SN
      OVC007
     FM091100 05013KT 4SM -SN SCT008 OVC015
     FM091500 03015G22KT 5SM -SN OVC015=



000
FTUS41 KOKX 081737
TAFLGA
TAF
KLGA 081737Z 0818/0918 36012G18KT 2SM -SN OVC025
     FM082000 04011KT P6SM OVC015
     FM082300 04008KT P6SM OVC015
      TEMPO 0901/0905 2SM -SN OVC007
     FM090500 06011KT 5SM -SN SCT008 OVC015 PROB30 0905/0911 2SM -SN
      OVC007
     FM091100 05013KT 4SM -SN SCT008 OVC015
     FM091500 03015G22KT 5SM -SN OVC015=



000
FTUS41 KOKX 081737
TAFISP
TAF
KISP 081737Z 0818/0918 01016G24KT 1SM -SN OVC015
      TEMPO 0818/0821 1/2SM SN OVC008
     FM082100 02010KT 3SM -SN BR OVC015
      TEMPO 0902/0906 2SM -SN OVC007
     FM090600 04008KT 5SM -SN SCT008 OVC015 PROB30 0906/0912 2SM -SN
      OVC007
     FM091200 04013KT 4SM -SN SCT008 OVC015
     FM091600 03015G22KT 5SM -SN OVC015=



000
FTUS41 KOKX 081737
TAFGON
TAF
KGON 081737Z 0818/0918 01018G28KT 1SM -SN BR OVC008
      TEMPO 0818/0822 1/4SM SN FZFG OVC006
     FM082200 02010KT 3SM -SN BR OVC008
      TEMPO 0903/0907 2SM -SN OVC005
     FM090700 02008KT 5SM -SN BKN008 OVC015 PROB30 0907/0913 2SM -SN
      OVC005
     FM091300 03012KT 4SM -SN BKN008 OVC015=



000
FTUS41 KOKX 081737
TAFSWF
TAF
KSWF 081737Z 0818/0924 05009KT P6SM OVC070
     FM082300 07008KT P6SM BKN025 OVC035
      TEMPO 0823/0903 2SM -SN OVC007
     FM090300 05008KT 5SM -SN SCT008 OVC015 PROB30 0903/0909 2SM -SN
      OVC007
     FM090900 VRB05KT 4SM -SN SCT008 OVC015
     FM091500 06008KT 5SM -SN OVC015
     FM092000 03010KT 5SM -SN OVC015
      AMD NOT SKED=



000
FTUS41 KOKX 081737
TAFTEB
TAF
KTEB 081737Z 0818/0918 02012G18KT 3SM -SN FEW015 OVC035
     FM082000 04008KT P6SM OVC015
      TEMPO 0900/0904 2SM -SN OVC007
     FM090400 05007KT 5SM -SN SCT008 OVC015 PROB30 0904/0910 2SM -SN
      OVC007
     FM091000 02010KT 4SM -SN SCT008 OVC015
     FM091500 03012KT 5SM -SN OVC015=



000
FTUS41 KOKX 081737
TAFEWR
TAF
KEWR 081737Z 0818/0924 03012KT P6SM FEW015 OVC035
     FM082000 04010KT P6SM OVC015
     FM082300 03006KT P6SM OVC015
      TEMPO 0900/0904 2SM -SN OVC007
     FM090400 05008KT 5SM -SN SCT008 OVC015 PROB30 0904/0910 2SM -SN
      OVC007
     FM091000 02013KT 4SM -SN SCT008 OVC015
     FM091500 03013G21KT 5SM -SN OVC015
     FM092000 03010KT 5SM -SN OVC015=



000
FTUS41 KOKX 081737
TAFJFK
TAF
KJFK 081737Z 0818/0924 01016G24KT 1SM -SN OVC015
     FM082000 02013KT P6SM OVC015
     FM082300 03007KT P6SM OVC015
      TEMPO 0901/0905 2SM -SN OVC007
     FM090500 05011KT 5SM -SN SCT008 OVC015 PROB30 0905/0911 2SM -SN
      OVC007
     FM091100 04013KT 4SM -SN SCT008 OVC015
     FM091500 03015G22KT 5SM -SN OVC015
     FM092000 03010KT 5SM -SN OVC015=



000
FTUS41 KOKX 081737
TAFBDR
TAF
KBDR 081737Z 0818/0918 01015G22KT 1SM -SN OVC015
      TEMPO 0818/0821 1/2SM SN OVC008
     FM082100 02008KT 3SM -SN BR OVC015
      TEMPO 0902/0906 2SM -SN OVC007
     FM090600 04008KT 5SM -SN SCT008 OVC015 PROB30 0906/0912 2SM -SN
      OVC007
     FM091200 04012KT 4SM -SN SCT008 OVC015
     FM091600 03013G21KT 5SM -SN OVC015=



000
FTUS41 KOKX 081737
TAFLGA
TAF
KLGA 081737Z 0818/0918 36012G18KT 2SM -SN OVC025
     FM082000 04011KT P6SM OVC015
     FM082300 04008KT P6SM OVC015
      TEMPO 0901/0905 2SM -SN OVC007
     FM090500 06011KT 5SM -SN SCT008 OVC015 PROB30 0905/0911 2SM -SN
      OVC007
     FM091100 05013KT 4SM -SN SCT008 OVC015
     FM091500 03015G22KT 5SM -SN OVC015=



000
FTUS41 KOKX 081737
TAFEWR
TAF
KEWR 081737Z 0818/0924 03012KT P6SM FEW015 OVC035
     FM082000 04010KT P6SM OVC015
     FM082300 03006KT P6SM OVC015
      TEMPO 0900/0904 2SM -SN OVC007
     FM090400 05008KT 5SM -SN SCT008 OVC015 PROB30 0904/0910 2SM -SN
      OVC007
     FM091000 02013KT 4SM -SN SCT008 OVC015
     FM091500 03013G21KT 5SM -SN OVC015
     FM092000 03010KT 5SM -SN OVC015=



000
FTUS41 KOKX 081737
TAFBDR
TAF
KBDR 081737Z 0818/0918 01015G22KT 1SM -SN OVC015
      TEMPO 0818/0821 1/2SM SN OVC008
     FM082100 02008KT 3SM -SN BR OVC015
      TEMPO 0902/0906 2SM -SN OVC007
     FM090600 04008KT 5SM -SN SCT008 OVC015 PROB30 0906/0912 2SM -SN
      OVC007
     FM091200 04012KT 4SM -SN SCT008 OVC015
     FM091600 03013G21KT 5SM -SN OVC015=



000
FTUS41 KOKX 081737
TAFSWF
TAF
KSWF 081737Z 0818/0924 05009KT P6SM OVC070
     FM082300 07008KT P6SM BKN025 OVC035
      TEMPO 0823/0903 2SM -SN OVC007
     FM090300 05008KT 5SM -SN SCT008 OVC015 PROB30 0903/0909 2SM -SN
      OVC007
     FM090900 VRB05KT 4SM -SN SCT008 OVC015
     FM091500 06008KT 5SM -SN OVC015
     FM092000 03010KT 5SM -SN OVC015
      AMD NOT SKED=



000
FTUS41 KOKX 081737
TAFGON
TAF
KGON 081737Z 0818/0918 01018G28KT 1SM -SN BR OVC008
      TEMPO 0818/0822 1/4SM SN FZFG OVC006
     FM082200 02010KT 3SM -SN BR OVC008
      TEMPO 0903/0907 2SM -SN OVC005
     FM090700 02008KT 5SM -SN BKN008 OVC015 PROB30 0907/0913 2SM -SN
      OVC005
     FM091300 03012KT 4SM -SN BKN008 OVC015=



000
FTUS41 KOKX 081737
TAFISP
TAF
KISP 081737Z 0818/0918 01016G24KT 1SM -SN OVC015
      TEMPO 0818/0821 1/2SM SN OVC008
     FM082100 02010KT 3SM -SN BR OVC015
      TEMPO 0902/0906 2SM -SN OVC007
     FM090600 04008KT 5SM -SN SCT008 OVC015 PROB30 0906/0912 2SM -SN
      OVC007
     FM091200 04013KT 4SM -SN SCT008 OVC015
     FM091600 03015G22KT 5SM -SN OVC015=



000
FTUS41 KOKX 081737
TAFJFK
TAF
KJFK 081737Z 0818/0924 01016G24KT 1SM -SN OVC015
     FM082000 02013KT P6SM OVC015
     FM082300 03007KT P6SM OVC015
      TEMPO 0901/0905 2SM -SN OVC007
     FM090500 05011KT 5SM -SN SCT008 OVC015 PROB30 0905/0911 2SM -SN
      OVC007
     FM091100 04013KT 4SM -SN SCT008 OVC015
     FM091500 03015G22KT 5SM -SN OVC015
     FM092000 03010KT 5SM -SN OVC015=



000
FTUS41 KOKX 081737
TAFTEB
TAF
KTEB 081737Z 0818/0918 02012G18KT 3SM -SN FEW015 OVC035
     FM082000 04008KT P6SM OVC015
      TEMPO 0900/0904 2SM -SN OVC007
     FM090400 05007KT 5SM -SN SCT008 OVC015 PROB30 0904/0910 2SM -SN
      OVC007
     FM091000 02010KT 4SM -SN SCT008 OVC015
     FM091500 03012KT 5SM -SN OVC015=



000
FTUS41 KOKX 081517 AAC
TAFLGA
TAF AMD
KLGA 081517Z 0815/0912 03012KT 1SM -SN SCT008 OVC015
      TEMPO 0815/0816 1/4SM +SN FZFG OVC005
     FM081900 02011G17KT 3SM -SN SCT008 OVC015
     FM082300 02009KT P6SM VCSH OVC025
     FM090300 06008KT P6SM VCSH BKN025=



000
FTUS41 KOKX 081442 AAB
TAFLGA
TAF AMD
KLGA 081442Z 0815/0912 06016G26KT 1SM -SN SCT008 OVC015
     FM081900 02011G17KT 3SM -SN SCT008 OVC015
     FM082300 02009KT P6SM VCSH OVC025
     FM090300 06008KT P6SM VCSH BKN025=



000
FTUS41 KOKX 081431 AAB
TAFEWR
TAF AMD
KEWR 081431Z 0815/0918 03014G21KT P6SM OVC025
     FM081515 03015G22KT 5SM -SN BR BKN015 OVC040
     FM081700 02015G23KT 2SM -SN OVC015
     FM081900 01011KT 3SM -SN SCT007 OVC015
     FM082200 01007KT P6SM VCSH OVC025
     FM090300 03007KT P6SM VCSH BKN025
     FM091200 04009KT 5SM -SN OVC025=



000
FTUS41 KOKX 081431 AAA
TAFTEB
TAF AMD
KTEB 081431Z 0815/0912 04011KT P6SM BKN030 BKN100
     FM081515 03012G18KT 5SM -SN BR BKN020 OVC040
     FM081700 02012G18KT 2SM -SN OVC015
     FM082000 02010KT 3SM -SN SCT007 OVC015
     FM082200 02006KT P6SM VCSH OVC025
     FM090300 03004KT P6SM VCSH BKN025=



000
FTUS41 KOKX 081431 AAA
TAFLGA
TAF AMD
KLGA 081431Z 0815/0912 06016G26KT P6SM VCSH BKN025 OVC080
     FM081515 04018G27KT 5SM -SN BR BKN015 OVC050
     FM081600 03017G26KT 1SM -SN BKN008 OVC015
     FM081900 02011G17KT 3SM -SN SCT008 OVC015
     FM082300 02009KT P6SM VCSH OVC025
     FM090300 06008KT P6SM VCSH BKN025=



000
FTUS41 KOKX 081431 AAB
TAFISP
TAF AMD
KISP 081431Z 0815/0912 02020G28KT 1/2SM SN FZFG BKN004 OVC010
     FM082000 01015G23KT 1 1/2SM -SN BR OVC007
     FM082300 02008KT 6SM BR VCSH OVC015
     FM090300 04007KT 6SM BR VCSH OVC025=



000
FTUS41 KOKX 081431 AAA
TAFSWF
TAF AMD
KSWF 081431Z 0815/0918 03013G19KT P6SM BKN025 BKN100
     FM081600 03013G20KT 6SM -SN BR BKN015 OVC025
     FM082000 03006KT P6SM VCSH OVC025
     FM090000 08005KT P6SM VCSH BKN025
     FM091200 09006KT 5SM -SN OVC025
      AMD NOT SKED=



000
FTUS41 KOKX 081431 AAA
TAFGON
TAF AMD
KGON 081431Z 0815/0912 02023G33KT 1/2SM SN FZFG OVC008
      TEMPO 0815/0819 1/4SM +SN FZFG OVC004
     FM082000 02015G24KT 1SM -SN BR OVC007
     FM090000 01012KT 6SM BR VCSH OVC015
     FM090500 01011KT 6SM BR VCSH OVC025=



000
FTUS41 KOKX 081431 AAA
TAFBDR
TAF AMD
KBDR 081431Z 0815/0912 02016G24KT 1SM -SN OVC015
      TEMPO 0815/0819 3/4SM -SN OVC007
     FM082000 02011G16KT 1SM -SN BR OVC015
     FM082300 03008KT 6SM BR VCSH OVC025
     FM090300 04007KT 6SM BR VCSH BKN025=



000
FTUS41 KOKX 081431 AAA
TAFJFK
TAF AMD
KJFK 081431Z 0815/0918 03018G27KT 1SM -SN BKN008 OVC015
     FM081900 01011G17KT 3SM -SN SCT008 OVC015
     FM082300 01009KT P6SM VCSH OVC025
     FM090300 05008KT P6SM VCSH BKN025
     FM091200 06010KT 5SM -SN OVC025=



000
FTUS41 KOKX 081230 AAA
TAFEWR
TAF AMD
KEWR 081230Z 0813/0918 03014G21KT P6SM OVC025
     FM081400 03015G22KT 5SM -SN BR BKN015 OVC040
     FM081500 02015G23KT 2SM -SN OVC015
     FM081900 01011KT 3SM -SN SCT007 OVC015
     FM082200 01007KT P6SM VCSH OVC025
     FM090300 03007KT P6SM VCSH BKN025
     FM091200 04009KT 5SM -SN OVC025=



000
FTUS41 KOKX 081227 AAA
TAFISP
TAF AMD
KISP 081227Z 0812/0912 03021G30KT 1SM -SN OVC007
     FM081400 02020G28KT 1/2SM SN FZFG BKN004 OVC010
     FM082000 01015G23KT 1 1/2SM -SN BR OVC007
     FM082300 02008KT 6SM BR VCSH OVC015
     FM090300 04007KT 6SM BR VCSH OVC025=



000
FTUS41 KOKX 081127
TAFISP
TAF
KISP 081127Z 0812/0912 05020G30KT 3SM -SN BR OVC015
     FM081300 02021G30KT 1SM -SN OVC007
     FM081400 01020G28KT 1/2SM SN FZFG BKN004 OVC010
     FM082000 01015G23KT 1 1/2SM -SN BR OVC007
     FM082300 02008KT 6SM BR VCSH OVC015
     FM090300 04007KT 6SM BR VCSH OVC025=



000
FTUS41 KOKX 081127
TAFGON
TAF
KGON 081127Z 0812/0912 04025G35KT 1SM -SN BKN015
     FM081300 03023G33KT 1/2SM SN FZFG BKN004 OVC010
     FM082000 02015G24KT 1SM -SN BR OVC007
     FM090000 01012KT 6SM BR VCSH OVC015
     FM090500 01011KT 6SM BR VCSH OVC025=



000
FTUS41 KOKX 081127
TAFTEB
TAF
KTEB 081127Z 0812/0912 04011KT P6SM BKN030 BKN100
     FM081400 03012G18KT 5SM -SN BR BKN020 OVC040
     FM081600 02012G18KT 2SM -SN OVC015
     FM082000 02010KT 3SM -SN SCT007 OVC015
     FM082200 02006KT P6SM VCSH OVC025
     FM090300 03004KT P6SM VCSH BKN025=



000
FTUS41 KOKX 081127
TAFLGA
TAF
KLGA 081127Z 0812/0912 04016G26KT P6SM VCSH BKN025 OVC080
     FM081300 04018G27KT 5SM -SN BR BKN015 OVC050
     FM081400 03017G26KT 1SM -SN BKN008 OVC015
     FM081900 02011G17KT 3SM -SN SCT008 OVC015
     FM082300 02009KT P6SM VCSH OVC025
     FM090300 06008KT P6SM VCSH BKN025=



000
FTUS41 KOKX 081127
TAFBDR
TAF
KBDR 081127Z 0812/0912 05015G25KT 5SM -SN BKN025 OVC050
     FM081300 03015G23KT 3SM -SN BR OVC015
     FM081400 02016G24KT 3/4SM -SN OVC007
     FM082000 02011G16KT 1SM -SN BR OVC015
     FM082300 03008KT 6SM BR VCSH OVC025
     FM090300 04007KT 6SM BR VCSH BKN025=



000
FTUS41 KOKX 081127
TAFEWR
TAF
KEWR 081127Z 0812/0918 03014G21KT P6SM BKN025 OVC080
     FM081300 03016G22KT 5SM -SN BR BKN015 OVC040
     FM081500 02015G23KT 1SM -SN OVC015
     FM081900 01011KT 3SM -SN SCT007 OVC015
     FM082200 01007KT P6SM VCSH OVC025
     FM090300 03007KT P6SM VCSH BKN025
     FM091200 04009KT 5SM -SN OVC025=



000
FTUS41 KOKX 081127
TAFSWF
TAF
KSWF 081127Z 0812/0918 03013G19KT P6SM BKN025 BKN100
     FM081400 03013G20KT 6SM -SN BR SCT015 OVC025
     FM081600 02013KT 2SM -SN BKN015 OVC025
     FM082000 03006KT P6SM VCSH OVC025
     FM090000 08005KT P6SM VCSH BKN025
     FM091200 09006KT 5SM -SN OVC025
      AMD NOT SKED=



000
FTUS41 KOKX 081127
TAFJFK
TAF
KJFK 081127Z 0812/0918 03018G26KT P6SM VCSH BKN025 OVC080
     FM081300 03018G27KT 5SM -SN BR BKN015 OVC050
     FM081400 02017G26KT 1SM -SN BKN008 OVC015
     FM081900 01011G17KT 3SM -SN SCT008 OVC015
     FM082300 01009KT P6SM VCSH OVC025
     FM090300 05008KT P6SM VCSH BKN025
     FM091200 06010KT 5SM -SN OVC025=



000
FTUS41 KOKX 081009 AAB
TAFLGA
TAF AMD
KLGA 081009Z 0810/0906 04014G24KT P6SM BKN020 OVC080
     FM081200 03018G25KT 5SM -SN BR OVC015
     FM081400 02018G25KT 1SM -SN BKN007 OVC015
     FM082000 02011G17KT 3SM -SN SCT007 OVC015
     FM082300 02009KT P6SM OVC025
     FM090300 06007KT P6SM BKN025=



000
FTUS41 KOKX 081009 AAB
TAFEWR
TAF AMD
KEWR 081009Z 0810/0912 02014G21KT P6SM BKN025 OVC080
     FM081300 02016G22KT 5SM -SN OVC015
     FM081500 02016G23KT 2SM -SN OVC015
     FM082000 02011KT 3SM -SN SCT007 OVC015
     FM082200 01007KT P6SM OVC025
     FM090300 04007KT P6SM OVC025=



000
FTUS41 KOKX 081009 AAB
TAFTEB
TAF AMD
KTEB 081009Z 0810/0906 02011KT P6SM BKN030 OVC080
     FM081400 02012G18KT 5SM -SN OVC015
     FM081600 01012G18KT 2SM -SN OVC015
     FM082000 02009KT 3SM -SN SCT007 OVC015
     FM082200 01006KT P6SM OVC025
     FM090300 VRB04KT P6SM OVC025=



000
FTUS41 KOKX 081009 AAB
TAFJFK
TAF AMD
KJFK 081009Z 0810/0912 03017G28KT P6SM BKN020 OVC080
     FM081200 03018G27KT 5SM -SN BR OVC015
     FM081400 02017G26KT 1SM -SN BKN007 OVC015
     FM082000 01011G17KT 3SM -SN SCT007 OVC015
     FM082300 01009KT P6SM OVC025
     FM090300 05008KT P6SM BKN025=



000
FTUS41 KOKX 080831 AAA
TAFBDR
TAF AMD
KBDR 080831Z 0809/0906 03014G21KT P6SM SCT015 OVC070
     FM081100 03015G23KT 5SM -SN BR OVC015
     FM081300 02016G24KT 3/4SM -SN OVC007
     FM081900 02012G20KT 2SM -SN BR OVC015
     FM082300 03007KT P6SM OVC025=



000
FTUS41 KOKX 080831 AAA
TAFISP
TAF AMD
KISP 080831Z 0809/0906 04018G27KT P6SM SCT015 OVC080
     FM081000 04020G30KT 5SM -SN BR OVC015
     FM081200 02022G30KT 1SM -SN OVC007
     FM081300 01020G28KT 1/2SM SN FG BKN004
     FM081900 02015G23KT 1 1/2SM -SN BR OVC007
     FM082300 02008KT P6SM OVC015
     FM090300 03007KT P6SM OVC025=



000
FTUS41 KOKX 080831 AAA
TAFGON
TAF AMD
KGON 080831Z 0809/0906 04018G25KT P6SM SCT020 OVC080
     FM081000 04022G30KT 5SM -SN BR BKN015
     FM081100 01024G32KT 1SM -SN BKN007
     FM081300 01022G30KT 1/2SM SN FG BKN004
     FM082000 02016G24KT 1SM -SN BR OVC007
     FM090200 01012KT P6SM OVC015
     FM090500 01011KT P6SM OVC025=



000
FTUS41 KOKX 080831 AAA
TAFLGA
TAF AMD
KLGA 080831Z 0809/0906 03014G24KT P6SM SCT020 OVC080
     FM081200 03018G25KT 5SM -SN BR OVC015
     FM081400 02018G25KT 1SM -SN BKN007 OVC015
     FM082000 02011G17KT 3SM -SN SCT007 OVC015
     FM082300 02009KT P6SM OVC025
     FM090300 06007KT P6SM BKN025=



000
FTUS41 KOKX 080831 AAA
TAFJFK
TAF AMD
KJFK 080831Z 0809/0912 03016G26KT P6SM SCT020 OVC080
     FM081100 03017G26KT 5SM -SN BR OVC015
     FM081300 02018G26KT 1SM -SN BKN007 OVC015
     FM082000 01011G17KT 3SM -SN SCT007 OVC015
     FM082300 01009KT P6SM OVC025
     FM090300 05008KT P6SM BKN025=



000
FTUS41 KOKX 080831 AAA
TAFTEB
TAF AMD
KTEB 080831Z 0809/0906 02011KT P6SM SCT020 OVC080
     FM081400 02012G18KT 5SM -SN OVC015
     FM081600 01012G18KT 2SM -SN OVC015
     FM082000 02009KT 3SM -SN SCT007 OVC015
     FM082200 01006KT P6SM OVC025
     FM090300 VRB04KT P6SM OVC025=



000
FTUS41 KOKX 080831 AAA
TAFEWR
TAF AMD
KEWR 080831Z 0809/0912 02015G21KT P6SM SCT020 OVC080
     FM081300 02016G22KT 5SM -SN OVC015
     FM081500 02016G23KT 2SM -SN OVC015
     FM082000 02011KT 3SM -SN SCT007 OVC015
     FM082200 01007KT P6SM OVC025
     FM090300 04007KT P6SM OVC025=



000
FTUS41 KOKX 080831 AAA
TAFSWF
TAF AMD
KSWF 080831Z 0809/0912 06010KT P6SM SCT020 OVC045
     FM081600 03008G15KT 6SM -SN SCT015 OVC025
     FM081800 02008G15KT 3SM -SN OVC015
     FM082200 VRB04KT P6SM BKN015
     FM090200 VRB03KT P6SM BKN025
      AMD NOT SKED=



000
FTUS41 KOKX 080831 AAA
TAFISP
TAF AMD
KISP 080831Z 0809/0906 04018G27KT P6SM SCT015 OVC080
     FM081000 04020G30KT 5SM -SN BR OVC015
     FM081200 02022G30KT 1SM -SN OVC007
     FM081300 01020G28KT 1/2SM SN FG BKN004
     FM081900 02015G23KT 1 1/2SM -SN BR OVC007
     FM082300 02008KT P6SM OVC015
     FM090300 03007KT P6SM OVC025=



000
FTUS41 KOKX 080831 AAA
TAFJFK
TAF AMD
KJFK 080831Z 0809/0912 03016G26KT P6SM SCT020 OVC080
     FM081100 03017G26KT 5SM -SN BR OVC015
     FM081300 02018G26KT 1SM -SN BKN007 OVC015
     FM082000 01011G17KT 3SM -SN SCT007 OVC015
     FM082300 01009KT P6SM OVC025
     FM090300 05008KT P6SM BKN025=



000
FTUS41 KOKX 080831 AAA
TAFSWF
TAF AMD
KSWF 080831Z 0809/0912 06010KT P6SM SCT020 OVC045
     FM081600 03008G15KT 6SM -SN SCT015 OVC025
     FM081800 02008G15KT 3SM -SN OVC015
     FM082200 VRB04KT P6SM BKN015
     FM090200 VRB03KT P6SM BKN025
      AMD NOT SKED=



000
FTUS41 KOKX 080831 AAA
TAFEWR
TAF AMD
KEWR 080831Z 0809/0912 02015G21KT P6SM SCT020 OVC080
     FM081300 02016G22KT 5SM -SN OVC015
     FM081500 02016G23KT 2SM -SN OVC015
     FM082000 02011KT 3SM -SN SCT007 OVC015
     FM082200 01007KT P6SM OVC025
     FM090300 04007KT P6SM OVC025=



000
FTUS41 KOKX 080831 AAA
TAFTEB
TAF AMD
KTEB 080831Z 0809/0906 02011KT P6SM SCT020 OVC080
     FM081400 02012G18KT 5SM -SN OVC015
     FM081600 01012G18KT 2SM -SN OVC015
     FM082000 02009KT 3SM -SN SCT007 OVC015
     FM082200 01006KT P6SM OVC025
     FM090300 VRB04KT P6SM OVC025=



000
FTUS41 KOKX 080831 AAA
TAFGON
TAF AMD
KGON 080831Z 0809/0906 04018G25KT P6SM SCT020 OVC080
     FM081000 04022G30KT 5SM -SN BR BKN015
     FM081100 01024G32KT 1SM -SN BKN007
     FM081300 01022G30KT 1/2SM SN FG BKN004
     FM082000 02016G24KT 1SM -SN BR OVC007
     FM090200 01012KT P6SM OVC015
     FM090500 01011KT P6SM OVC025=



000
FTUS41 KOKX 080831 AAA
TAFLGA
TAF AMD
KLGA 080831Z 0809/0906 03014G24KT P6SM SCT020 OVC080
     FM081200 03018G25KT 5SM -SN BR OVC015
     FM081400 02018G25KT 1SM -SN BKN007 OVC015
     FM082000 02011G17KT 3SM -SN SCT007 OVC015
     FM082300 02009KT P6SM OVC025
     FM090300 06007KT P6SM BKN025=



000
FTUS41 KOKX 080831 AAA
TAFBDR
TAF AMD
KBDR 080831Z 0809/0906 03014G21KT P6SM SCT015 OVC070
     FM081100 03015G23KT 5SM -SN BR OVC015
     FM081300 02016G24KT 3/4SM -SN OVC007
     FM081900 02012G20KT 2SM -SN BR OVC015
     FM082300 03007KT P6SM OVC025=



000
FTUS41 KOKX 080531
TAFSWF
TAF
KSWF 080531Z 0806/0912 VRB04KT P6SM BKN200
     FM080700 04008KT P6SM BKN120
     FM080900 05009KT P6SM SCT020 OVC045
     FM081600 03008G15KT 6SM -SN SCT015 OVC025
     FM081800 02008G15KT 3SM -SN OVC015
     FM082200 VRB04KT P6SM BKN015
     FM090200 VRB03KT P6SM BKN025
      AMD NOT SKED=



000
FTUS41 KOKX 080531
TAFLGA
TAF
KLGA 080531Z 0806/0906 04015KT P6SM SCT020 OVC080
     FM081200 03019KT 5SM -SN BR OVC015
     FM081400 02018G25KT 1SM -SN BKN007 OVC015
     FM082000 02011G17KT 3SM -SN SCT007 OVC015
     FM082300 02009KT P6SM OVC025
     FM090300 06007KT P6SM BKN025=



000
FTUS41 KOKX 080531
TAFISP
TAF
KISP 080531Z 0806/0906 04018KT P6SM SCT015 OVC080
     FM080900 04022KT 5SM -SN BR OVC015
     FM081100 02022KT 1SM -SN OVC007
     FM081300 01020G28KT 1/2SM SN FG BKN004
     FM081900 02015G23KT 1 1/2SM -SN BR OVC007
     FM082300 02008KT P6SM OVC015
     FM090300 03007KT P6SM OVC025=



000
FTUS41 KOKX 080531
TAFTEB
TAF
KTEB 080531Z 0806/0906 03008KT P6SM OVC120
     FM080900 03011KT P6SM SCT020 OVC080
     FM081400 02012KT 5SM -SN OVC015
     FM081600 01012G19KT 2SM -SN OVC015
     FM082000 02009KT 3SM -SN SCT007 OVC015
     FM082200 01006KT P6SM OVC025
     FM090300 VRB04KT P6SM OVC025=



000
FTUS41 KOKX 080531
TAFJFK
TAF
KJFK 080531Z 0806/0912 04015KT P6SM SCT020 OVC080
     FM081100 03019KT 5SM -SN BR OVC015
     FM081300 02018G25KT 1SM -SN BKN007 OVC015
     FM082000 01011G17KT 3SM -SN SCT007 OVC015
     FM082300 01009KT P6SM OVC025
     FM090300 05008KT P6SM BKN025=



000
FTUS41 KOKX 080531
TAFEWR
TAF
KEWR 080531Z 0806/0912 03013KT P6SM BKN150
     FM080700 02015KT P6SM SCT020 OVC080
     FM081300 02017KT 5SM -SN OVC015
     FM081500 02016G23KT 2SM -SN OVC015
     FM082000 02011KT 3SM -SN SCT007 OVC015
     FM082200 01007KT P6SM OVC025
     FM090300 04007KT P6SM OVC025=



000
FTUS41 KOKX 080531
TAFBDR
TAF
KBDR 080531Z 0806/0906 05011KT P6SM BKN150
     FM080700 03016KT P6SM SCT015 OVC070
     FM081100 03018KT 5SM -SN BR OVC015
     FM081300 02016G24KT 3/4SM -SN OVC007
     FM081900 02012G20KT 2SM -SN BR OVC015
     FM082300 03007KT P6SM OVC025=



000
FTUS41 KOKX 080531
TAFGON
TAF
KGON 080531Z 0806/0906 05013KT P6SM BKN150
     FM080700 04018KT P6SM SCT015 OVC100
     FM080900 04022KT 5SM -SN BR BKN015
     FM081100 01024G32KT 1SM -SN BKN007
     FM081300 01022G30KT 1/2SM SN FG BKN004
     FM082000 02016G24KT 1SM -SN BR OVC007
     FM090200 01012KT P6SM OVC015
     FM090500 01011KT P6SM OVC025=



000
FTUS41 KOKX 080531
TAFTEB
TAF
KTEB 080531Z 0806/0906 03008KT P6SM OVC120
     FM080900 03011KT P6SM SCT020 OVC080
     FM081400 02012KT 5SM -SN OVC015
     FM081600 01012G19KT 2SM -SN OVC015
     FM082000 02009KT 3SM -SN SCT007 OVC015
     FM082200 01006KT P6SM OVC025
     FM090300 VRB04KT P6SM OVC025=



000
FTUS41 KOKX 080531
TAFISP
TAF
KISP 080531Z 0806/0906 04018KT P6SM SCT015 OVC080
     FM080900 04022KT 5SM -SN BR OVC015
     FM081100 02022KT 1SM -SN OVC007
     FM081300 01020G28KT 1/2SM SN FG BKN004
     FM081900 02015G23KT 1 1/2SM -SN BR OVC007
     FM082300 02008KT P6SM OVC015
     FM090300 03007KT P6SM OVC025=



000
FTUS41 KOKX 080531
TAFSWF
TAF
KSWF 080531Z 0806/0912 VRB04KT P6SM BKN200
     FM080700 04008KT P6SM BKN120
     FM080900 05009KT P6SM SCT020 OVC045
     FM081600 03008G15KT 6SM -SN SCT015 OVC025
     FM081800 02008G15KT 3SM -SN OVC015
     FM082200 VRB04KT P6SM BKN015
     FM090200 VRB03KT P6SM BKN025
      AMD NOT SKED=



000
FTUS41 KOKX 080531
TAFEWR
TAF
KEWR 080531Z 0806/0912 03013KT P6SM BKN150
     FM080700 02015KT P6SM SCT020 OVC080
     FM081300 02017KT 5SM -SN OVC015
     FM081500 02016G23KT 2SM -SN OVC015
     FM082000 02011KT 3SM -SN SCT007 OVC015
     FM082200 01007KT P6SM OVC025
     FM090300 04007KT P6SM OVC025=



000
FTUS41 KOKX 080531
TAFBDR
TAF
KBDR 080531Z 0806/0906 05011KT P6SM BKN150
     FM080700 03016KT P6SM SCT015 OVC070
     FM081100 03018KT 5SM -SN BR OVC015
     FM081300 02016G24KT 3/4SM -SN OVC007
     FM081900 02012G20KT 2SM -SN BR OVC015
     FM082300 03007KT P6SM OVC025=



000
FTUS41 KOKX 080531
TAFLGA
TAF
KLGA 080531Z 0806/0906 04015KT P6SM SCT020 OVC080
     FM081200 03019KT 5SM -SN BR OVC015
     FM081400 02018G25KT 1SM -SN BKN007 OVC015
     FM082000 02011G17KT 3SM -SN SCT007 OVC015
     FM082300 02009KT P6SM OVC025
     FM090300 06007KT P6SM BKN025=



000
FTUS41 KOKX 080531
TAFGON
TAF
KGON 080531Z 0806/0906 05013KT P6SM BKN150
     FM080700 04018KT P6SM SCT015 OVC100
     FM080900 04022KT 5SM -SN BR BKN015
     FM081100 01024G32KT 1SM -SN BKN007
     FM081300 01022G30KT 1/2SM SN FG BKN004
     FM082000 02016G24KT 1SM -SN BR OVC007
     FM090200 01012KT P6SM OVC015
     FM090500 01011KT P6SM OVC025=



000
FTUS41 KOKX 080531
TAFJFK
TAF
KJFK 080531Z 0806/0912 04015KT P6SM SCT020 OVC080
     FM081100 03019KT 5SM -SN BR OVC015
     FM081300 02018G25KT 1SM -SN BKN007 OVC015
     FM082000 01011G17KT 3SM -SN SCT007 OVC015
     FM082300 01009KT P6SM OVC025
     FM090300 05008KT P6SM BKN025=



000
FTUS41 KOKX 080252 AAA
TAFLGA
TAF AMD
KLGA 080252Z 0803/0824 05010KT P6SM OVC200
     FM080600 04015KT P6SM SCT020 OVC080
     FM081200 03019KT 5SM -SN BR OVC015
     FM081400 02018G25KT 1SM -SN OVC007
     FM082000 02011G17KT 3SM -SN SCT007 OVC015
     FM082300 02009KT P6SM OVC025=



000
FTUS41 KOKX 080252 AAA
TAFEWR
TAF AMD
KEWR 080252Z 0803/0906 03009KT P6SM BKN150
     FM080700 02015KT P6SM SCT020 OVC080
     FM081300 02017KT 5SM -SN OVC015
     FM081500 02016G23KT 2SM -SN OVC015
     FM082000 02011KT 3SM -SN SCT007 OVC015
     FM082200 01007KT P6SM OVC025
     FM090300 04007KT P6SM OVC025=



000
FTUS41 KOKX 080252 AAA
TAFTEB
TAF AMD
KTEB 080252Z 0803/0824 VRB05KT P6SM BKN200
     FM080500 03008KT P6SM OVC120
     FM080800 03011KT P6SM SCT020 OVC080
     FM081400 02012KT 5SM -SN OVC015
     FM081600 01012G19KT 2SM -SN OVC015
     FM082000 02009KT 3SM -SN SCT007 OVC015
     FM082200 01006KT P6SM OVC025=



000
FTUS41 KOKX 080252 AAA
TAFGON
TAF AMD
KGON 080252Z 0803/0824 05013KT P6SM BKN150
     FM080500 04018KT P6SM SCT015 OVC100
     FM080900 04022KT 5SM -SN BR BKN015
     FM081100 01024G32KT 1SM -SN BKN007
     FM081300 01022G30KT 1/2SM SN FG BKN004
     FM082000 02016G24KT 1SM -SN BR OVC007=



000
FTUS41 KOKX 080252 AAA
TAFISP
TAF AMD
KISP 080252Z 0803/0824 05009KT P6SM BKN200
     FM080500 04014KT P6SM BKN120
     FM080700 04018KT P6SM SCT015 OVC070
     FM080900 04022KT 5SM -SN BR OVC015
     FM081100 02022KT 1SM -SN OVC007
     FM081300 01020G28KT 1/2SM SN FG BKN004
     FM081900 02015G23KT 1 1/2SM -SN BR OVC007=



000
FTUS41 KOKX 080252 AAA
TAFJFK
TAF AMD
KJFK 080252Z 0803/0906 05011KT P6SM OVC200
     FM080600 04015KT P6SM SCT020 OVC080
     FM081100 03019KT 5SM -SN BR OVC015
     FM081300 02018G25KT 1SM -SN OVC007
     FM082000 01011G17KT 3SM -SN SCT007 OVC015
     FM082300 01009KT P6SM OVC025
     FM090300 05008KT P6SM BKN025=



000
FTUS41 KOKX 080252 AAA
TAFBDR
TAF AMD
KBDR 080252Z 0803/0824 05011KT P6SM BKN150
     FM080600 03016KT P6SM SCT015 OVC070
     FM081100 03018KT 5SM -SN BR OVC015
     FM081300 02016G24KT 3/4SM -SN OVC007
     FM081900 02012G20KT 2SM -SN BR OVC015=



000
FTUS41 KOKX 080001 CCA
TAFSWF
TAF COR
KSWF 080001Z 0800/0906 VRB04KT P6SM BKN200
     FM080700 04008KT P6SM BKN120
     FM080900 05009KT P6SM SCT020 OVC045
     FM081600 03008G15KT 6SM -SN SCT015 OVC025
     FM081800 02008G15KT 3SM -SN OVC015
     FM082200 VRB04KT P6SM BKN015
     FM090200 VRB03KT P6SM BKN025
      AMD NOT SKED=



000
FTUS41 KOKX 072350
TAFLGA
TAF
KLGA 072350Z 0800/0824 05010KT P6SM OVC200
     FM080600 04015KT P6SM SCT020 OVC080
     FM081100 03019KT 5SM -SN BR OVC015
     FM081400 02018G25KT 1SM -SN OVC007
     FM082000 02011G17KT 3SM -SN SCT007 OVC015
     FM082300 02009KT P6SM OVC025=



000
FTUS41 KOKX 072350
TAFBDR
TAF
KBDR 072350Z 0800/0824 05006KT P6SM BKN200
     FM080400 04011KT P6SM BKN120
     FM080600 03015KT P6SM SCT015 OVC070
     FM081000 03018KT 5SM -SN BR OVC015
     FM081300 02016G24KT 3/4SM -SN OVC007
     FM081900 02012G20KT 2SM -SN BR OVC015=



000
FTUS41 KOKX 072350
TAFTEB
TAF
KTEB 072350Z 0800/0824 VRB05KT P6SM BKN200
     FM080400 03006KT P6SM OVC120
     FM080800 03010KT P6SM SCT020 OVC080
     FM081300 02012KT 5SM -SN OVC015
     FM081600 01012G19KT 2SM -SN OVC015
     FM082000 02009KT 3SM -SN SCT007 OVC015
     FM082200 01006KT P6SM OVC025=



000
FTUS41 KOKX 072350
TAFISP
TAF
KISP 072350Z 0800/0824 04006KT P6SM BKN200
     FM080400 04011KT P6SM BKN120
     FM080600 04016KT P6SM SCT015 OVC070
     FM080800 04019KT 5SM -SN BR OVC015
     FM081100 02022KT 1SM -SN OVC007
     FM081300 01020G28KT 1/2SM SN FG BKN004
     FM081900 02015G23KT 1 1/2SM -SN BR OVC007=



000
FTUS41 KOKX 072350
TAFJFK
TAF
KJFK 072350Z 0800/0906 04009KT P6SM OVC150
     FM080600 04015KT P6SM SCT020 OVC080
     FM081000 03019KT 5SM -SN BR OVC015
     FM081300 02018G25KT 1SM -SN OVC007
     FM082000 01011G17KT 3SM -SN SCT007 OVC015
     FM082300 01009KT P6SM OVC025
     FM090300 05008KT P6SM BKN025=



000
FTUS41 KOKX 072350
TAFGON
TAF
KGON 072350Z 0800/0824 VRB05KT P6SM BKN200
     FM080200 04009KT P6SM BKN150
     FM080500 02015KT P6SM SCT015 OVC100
     FM080800 04020KT 5SM -SN BR BKN015
     FM081100 01023G30KT 1SM -SN BKN007
     FM081300 01021G29KT 1/2SM SN FG BKN004
     FM082000 02016G24KT 1SM -SN BR OVC007=



000
FTUS41 KOKX 072350
TAFEWR
TAF
KEWR 072350Z 0800/0906 VRB04KT P6SM BKN200
     FM080300 03009KT P6SM OVC120
     FM080700 02014KT P6SM SCT020 OVC080
     FM081200 02016KT 5SM -SN OVC015
     FM081500 02016G23KT 2SM -SN OVC015
     FM082000 02011KT 3SM -SN SCT007 OVC015
     FM082200 01007KT P6SM OVC025
     FM090300 04007KT P6SM OVC025=



000
FTUS41 KOKX 072350
TAFSWF
TAF
KSWF 072350Z 0800/0906 VRB04KT P6SM BKN200
     FM080700 04008KT P6SM BKN120
     FM080900 05009KT P6SM SCT020 OVC045
     FM081600 03008KT 6SM -SN SCT015 OVC025
     FM081800 02008KT 3SM -SN OVC015
     FM082200 VRB04KT P6SM BKN015
     FM090200 VRB03KT P6SM BKN025
      AMD NOT SKED=



000
FTUS41 KOKX 072023 AAA
TAFTEB
TAF AMD
KTEB 072023Z 0720/0818 10005KT P6SM BKN250
     FM072200 05006KT P6SM BKN250
     FM080400 02008KT P6SM OVC200
     FM080800 02010G16KT P6SM SCT020 OVC200
     FM081300 01013G20KT 5SM -SN BKN015
     FM081600 01013G20KT 2SM -SN BKN015=



000
FTUS41 KOKX 072023 AAA
TAFEWR
TAF AMD
KEWR 072023Z 0720/0824 11006KT P6SM BKN250
     FM072200 04008KT P6SM BKN250
     FM080300 03009KT P6SM OVC200
     FM080700 02013G20KT P6SM SCT020 OVC200
     FM081200 01016G23KT 5SM -SN BKN015
     FM081500 01016G23KT 2SM -SN BKN015
     FM082000 01010G16KT 3SM -SN SCT007 BKN015=



000
FTUS41 KOKX 072023 AAA
TAFJFK
TAF AMD
KJFK 072023Z 0720/0824 08007KT P6SM FEW050 BKN250
     FM072200 05009KT P6SM BKN250
     FM080300 04011KT P6SM OVC250
     FM080600 03014G21KT P6SM SCT020 OVC200
     FM081000 02018G25KT 5SM -SN BR BKN015
     FM081300 01018G25KT 1SM -SN BKN007
     FM082000 01010G16KT 3SM -SN SCT007 BKN015=



000
FTUS41 KOKX 072023 AAA
TAFLGA
TAF AMD
KLGA 072023Z 0720/0818 06005KT P6SM FEW050 BKN250
     FM072300 05009KT P6SM BKN250
     FM080300 03012KT P6SM OVC250
     FM080700 05015G22KT P6SM SCT020 OVC200
     FM081100 03020G26KT 5SM -SN BR BKN015
     FM081400 01020G26KT 1SM -SN BKN007=



000
FTUS41 KOKX 072023 AAA
TAFISP
TAF AMD
KISP 072023Z 0720/0818 08006KT P6SM FEW050 BKN250
     FM072200 05007KT P6SM BKN200
     FM080300 03011KT P6SM BKN150
     FM080500 02014G20KT P6SM SCT015 OVC130
     FM080800 02018G25KT 5SM -SN BR BKN015
     FM081100 01020G28KT 1SM -SN BKN007
     FM081300 01020G28KT 1/2SM SN FG BKN004=



000
FTUS41 KOKX 072023 AAA
TAFBDR
TAF AMD
KBDR 072023Z 0720/0818 06006KT P6SM BKN250
     FM072200 05006KT P6SM BKN250
     FM080300 04011KT P6SM BKN150
     FM080500 02014G20KT P6SM SCT015 OVC130
     FM081000 02018G25KT 5SM -SN BR BKN015
     FM081300 01018G25KT 3/4SM -SN BKN007=



000
FTUS41 KOKX 072023 AAA
TAFSWF
TAF AMD
KSWF 072023Z 0720/0824 VRB03KT P6SM SKC
     FM072100 11005KT P6SM BKN250
     FM080100 05005KT P6SM BKN250
     FM080900 07010KT P6SM SCT020 OVC045
     FM081500 03010KT 6SM -SN SCT015 BKN025
     FM081800 03010KT 3SM -SN BKN015
      AMD NOT SKED=



000
FTUS41 KOKX 072023 AAA
TAFGON
TAF AMD
KGON 072023Z 0720/0818 12005KT P6SM BKN250
     FM072200 08007KT P6SM BKN250
     FM080100 05009KT P6SM BKN200
     FM080500 02014G20KT P6SM SCT015 OVC110
     FM080800 02018G25KT 5SM -SN BR BKN015
     FM081100 01021G29KT 1SM -SN BKN007
     FM081300 01021G29KT 1/2SM SN FG BKN004=



000
FTUS41 KOKX 071740
TAFGON
TAF
KGON 071740Z 0718/0818 VRB04KT P6SM SKC
     FM072000 12005KT P6SM BKN250
     FM072200 08007KT P6SM BKN250
     FM080100 05009KT P6SM BKN200
     FM080500 02014G20KT P6SM SCT015 OVC110
     FM080800 02018G25KT 5SM -SN BR BKN015
     FM081100 01021G29KT 1SM -SN BKN007
     FM081300 01021G29KT 1/2SM SN FG BKN004=



000
FTUS41 KOKX 071740
TAFLGA
TAF
KLGA 071740Z 0718/0818 06005KT P6SM BKN250
     FM072300 05009KT P6SM BKN250
     FM080300 03012KT P6SM OVC250
     FM080700 05015G22KT P6SM SCT020 OVC200
     FM081100 03020G26KT 5SM -SN BR BKN015
     FM081400 01020G26KT 1SM -SN BKN007=



000
FTUS41 KOKX 071740
TAFEWR
TAF
KEWR 071740Z 0718/0824 10004KT P6SM SKC
     FM072000 11006KT P6SM BKN250
     FM072200 04008KT P6SM BKN250
     FM080300 03009KT P6SM OVC200
     FM080700 02013G20KT P6SM SCT020 OVC200
     FM081200 01016G23KT 5SM -SN BKN015
     FM081500 01016G23KT 2SM -SN BKN015
     FM082000 01010G16KT 3SM -SN SCT007 BKN015=



000
FTUS41 KOKX 071740
TAFISP
TAF
KISP 071740Z 0718/0818 VRB04KT P6SM SKC
     FM071900 08006KT P6SM BKN250
     FM072200 05007KT P6SM BKN200
     FM080300 03011KT P6SM BKN150
     FM080500 02014G20KT P6SM SCT015 OVC130
     FM080800 02018G25KT 5SM -SN BR BKN015
     FM081100 01020G28KT 1SM -SN BKN007
     FM081300 01020G28KT 1/2SM SN FG BKN004=



000
FTUS41 KOKX 071740
TAFJFK
TAF
KJFK 071740Z 0718/0824 08004KT P6SM SCT250
     FM072000 08007KT P6SM BKN250
     FM072200 05009KT P6SM BKN250
     FM080300 04011KT P6SM OVC250
     FM080600 03014G21KT P6SM SCT020 OVC200
     FM081000 02018G25KT 5SM -SN BR BKN015
     FM081300 01018G25KT 1SM -SN BKN007
     FM082000 01010G16KT 3SM -SN SCT007 BKN015=



000
FTUS41 KOKX 071740
TAFTEB
TAF
KTEB 071740Z 0718/0818 VRB03KT P6SM SKC
     FM072000 10005KT P6SM BKN250
     FM072200 05006KT P6SM BKN250
     FM080400 02008KT P6SM OVC200
     FM080800 02010G16KT P6SM SCT020 OVC200
     FM081300 01013G20KT 5SM -SN BKN015
     FM081600 01013G20KT 2SM -SN BKN015=



000
FTUS41 KOKX 071740
TAFBDR
TAF
KBDR 071740Z 0718/0818 VRB04KT P6SM SKC
     FM072000 10006KT P6SM BKN250
     FM072200 05006KT P6SM BKN250
     FM080300 04011KT P6SM BKN150
     FM080500 02014G20KT P6SM SCT015 OVC130
     FM081000 02018G25KT 5SM -SN BR BKN015
     FM081300 01018G25KT 3/4SM -SN BKN007=



000
FTUS41 KOKX 071740
TAFSWF
TAF
KSWF 071740Z 0718/0824 VRB03KT P6SM SKC
     FM072100 11005KT P6SM BKN250
     FM080100 05005KT P6SM BKN250
     FM080900 07010KT P6SM SCT020 OVC045
     FM081500 03010KT 6SM -SN SCT015 BKN025
     FM081800 03010KT 3SM -SN BKN015
      AMD NOT SKED=



000
FTUS41 KOKX 071740
TAFSWF
TAF
KSWF 071740Z 0718/0824 VRB03KT P6SM SKC
     FM072100 11005KT P6SM BKN250
     FM080100 05005KT P6SM BKN250
     FM080900 07010KT P6SM SCT020 OVC045
     FM081500 03010KT 6SM -SN SCT015 BKN025
     FM081800 03010KT 3SM -SN BKN015
      AMD NOT SKED=



000
FTUS41 KOKX 071740
TAFEWR
TAF
KEWR 071740Z 0718/0824 10004KT P6SM SKC
     FM072000 11006KT P6SM BKN250
     FM072200 04008KT P6SM BKN250
     FM080300 03009KT P6SM OVC200
     FM080700 02013G20KT P6SM SCT020 OVC200
     FM081200 01016G23KT 5SM -SN BKN015
     FM081500 01016G23KT 2SM -SN BKN015
     FM082000 01010G16KT 3SM -SN SCT007 BKN015=



000
FTUS41 KOKX 071740
TAFISP
TAF
KISP 071740Z 0718/0818 VRB04KT P6SM SKC
     FM071900 08006KT P6SM BKN250
     FM072200 05007KT P6SM BKN200
     FM080300 03011KT P6SM BKN150
     FM080500 02014G20KT P6SM SCT015 OVC130
     FM080800 02018G25KT 5SM -SN BR BKN015
     FM081100 01020G28KT 1SM -SN BKN007
     FM081300 01020G28KT 1/2SM SN FG BKN004=



000
FTUS41 KOKX 071740
TAFJFK
TAF
KJFK 071740Z 0718/0824 08004KT P6SM SCT250
     FM072000 08007KT P6SM BKN250
     FM072200 05009KT P6SM BKN250
     FM080300 04011KT P6SM OVC250
     FM080600 03014G21KT P6SM SCT020 OVC200
     FM081000 02018G25KT 5SM -SN BR BKN015
     FM081300 01018G25KT 1SM -SN BKN007
     FM082000 01010G16KT 3SM -SN SCT007 BKN015=



000
FTUS41 KOKX 071740
TAFTEB
TAF
KTEB 071740Z 0718/0818 VRB03KT P6SM SKC
     FM072000 10005KT P6SM BKN250
     FM072200 05006KT P6SM BKN250
     FM080400 02008KT P6SM OVC200
     FM080800 02010G16KT P6SM SCT020 OVC200
     FM081300 01013G20KT 5SM -SN BKN015
     FM081600 01013G20KT 2SM -SN BKN015=



000
FTUS41 KOKX 071740
TAFGON
TAF
KGON 071740Z 0718/0818 VRB04KT P6SM SKC
     FM072000 12005KT P6SM BKN250
     FM072200 08007KT P6SM BKN250
     FM080100 05009KT P6SM BKN200
     FM080500 02014G20KT P6SM SCT015 OVC110
     FM080800 02018G25KT 5SM -SN BR BKN015
     FM081100 01021G29KT 1SM -SN BKN007
     FM081300 01021G29KT 1/2SM SN FG BKN004=



000
FTUS41 KOKX 071740
TAFLGA
TAF
KLGA 071740Z 0718/0818 06005KT P6SM BKN250
     FM072300 05009KT P6SM BKN250
     FM080300 03012KT P6SM OVC250
     FM080700 05015G22KT P6SM SCT020 OVC200
     FM081100 03020G26KT 5SM -SN BR BKN015
     FM081400 01020G26KT 1SM -SN BKN007=



000
FTUS41 KOKX 071740
TAFBDR
TAF
KBDR 071740Z 0718/0818 VRB04KT P6SM SKC
     FM072000 10006KT P6SM BKN250
     FM072200 05006KT P6SM BKN250
     FM080300 04011KT P6SM BKN150
     FM080500 02014G20KT P6SM SCT015 OVC130
     FM081000 02018G25KT 5SM -SN BR BKN015
     FM081300 01018G25KT 3/4SM -SN BKN007=



    US Dept of Commerce
    National Oceanic and Atmospheric Administration
    National Weather Service
    1325 East West Highway
    Silver Spring, MD 20910
    Page Author: NWS Internet Services Team
Disclaimer
Information Quality
Credits
Glossary
Privacy Policy
Freedom of Information Act (FOIA)
About Us
Career Opportunities